<?xml version="1.0" encoding="UTF-8" standalone="no" ?>
<gpx xmlns="http://www.topografix.com/GPX/1/1" creator="www.cicloide.com" version="1.1" xmlns:xsi="http://www.w3.org/2001/XMLSchema-instance" xsi:schemaLocation="http://www.topografix.com/GPX/1/1 http://www.topografix.com/GPX/1/1/gpx.xsd">
  <trk>
    <name>www.cicloide.com 885136</name>
    <desc>www.cicloide.com 885136</desc>
    <trkseg>
      <trkpt lat="42.234642510" lon="1.874927220">
        <ele>755.73</ele>
        <time>2020-07-09T03:55:39Z</time>
      </trkpt>
      <trkpt lat="42.234753730" lon="1.874975160">
        <ele>755.73</ele>
        <time>2020-07-09T03:56:07Z</time>
      </trkpt>
      <trkpt lat="42.234740660" lon="1.875012210">
        <ele>755.73</ele>
        <time>2020-07-09T03:56:59Z</time>
      </trkpt>
      <trkpt lat="42.234651220" lon="1.875037360">
        <ele>755.73</ele>
        <time>2020-07-09T03:57:28Z</time>
      </trkpt>
      <trkpt lat="42.234580060" lon="1.875075330">
        <ele>755.73</ele>
        <time>2020-07-09T03:57:46Z</time>
      </trkpt>
      <trkpt lat="42.234443270" lon="1.875132410">
        <ele>755.73</ele>
        <time>2020-07-09T03:57:58Z</time>
      </trkpt>
      <trkpt lat="42.234304040" lon="1.875114130">
        <ele>755.73</ele>
        <time>2020-07-09T03:58:20Z</time>
      </trkpt>
      <trkpt lat="42.234218050" lon="1.875152860">
        <ele>755.73</ele>
        <time>2020-07-09T03:58:28Z</time>
      </trkpt>
      <trkpt lat="42.234043280" lon="1.875142550">
        <ele>759.58</ele>
        <time>2020-07-09T03:58:43Z</time>
      </trkpt>
      <trkpt lat="42.233915120" lon="1.875047250">
        <ele>762.94</ele>
        <time>2020-07-09T03:58:59Z</time>
      </trkpt>
      <trkpt lat="42.233811020" lon="1.874939290">
        <ele>765.83</ele>
        <time>2020-07-09T03:59:13Z</time>
      </trkpt>
      <trkpt lat="42.233696940" lon="1.874806100">
        <ele>767.75</ele>
        <time>2020-07-09T03:59:31Z</time>
      </trkpt>
      <trkpt lat="42.233445990" lon="1.874852870">
        <ele>770.15</ele>
        <time>2020-07-09T03:59:50Z</time>
      </trkpt>
      <trkpt lat="42.233336270" lon="1.874911210">
        <ele>771.11</ele>
        <time>2020-07-09T04:00:12Z</time>
      </trkpt>
      <trkpt lat="42.233076100" lon="1.874883550">
        <ele>773.04</ele>
        <time>2020-07-09T04:00:37Z</time>
      </trkpt>
      <trkpt lat="42.232929330" lon="1.874871310">
        <ele>774.00</ele>
        <time>2020-07-09T04:00:52Z</time>
      </trkpt>
      <trkpt lat="42.232765380" lon="1.874892350">
        <ele>776.40</ele>
        <time>2020-07-09T04:01:04Z</time>
      </trkpt>
      <trkpt lat="42.232560690" lon="1.874915990">
        <ele>779.29</ele>
        <time>2020-07-09T04:01:23Z</time>
      </trkpt>
      <trkpt lat="42.232443850" lon="1.874978770">
        <ele>780.73</ele>
        <time>2020-07-09T04:01:38Z</time>
      </trkpt>
      <trkpt lat="42.232302700" lon="1.875058650">
        <ele>789.38</ele>
        <time>2020-07-09T04:02:10Z</time>
      </trkpt>
      <trkpt lat="42.232179570" lon="1.875143890">
        <ele>791.30</ele>
        <time>2020-07-09T04:02:24Z</time>
      </trkpt>
      <trkpt lat="42.232024080" lon="1.875132830">
        <ele>792.26</ele>
        <time>2020-07-09T04:02:49Z</time>
      </trkpt>
      <trkpt lat="42.231890390" lon="1.875062920">
        <ele>793.22</ele>
        <time>2020-07-09T04:03:01Z</time>
      </trkpt>
      <trkpt lat="42.231704900" lon="1.875049090">
        <ele>796.11</ele>
        <time>2020-07-09T04:03:21Z</time>
      </trkpt>
      <trkpt lat="42.231517310" lon="1.875074650">
        <ele>798.03</ele>
        <time>2020-07-09T04:03:38Z</time>
      </trkpt>
      <trkpt lat="42.231321260" lon="1.875092840">
        <ele>800.44</ele>
        <time>2020-07-09T04:03:56Z</time>
      </trkpt>
      <trkpt lat="42.231142890" lon="1.875192170">
        <ele>801.88</ele>
        <time>2020-07-09T04:04:14Z</time>
      </trkpt>
      <trkpt lat="42.230955470" lon="1.875189490">
        <ele>803.32</ele>
        <time>2020-07-09T04:04:30Z</time>
      </trkpt>
      <trkpt lat="42.230733440" lon="1.875113710">
        <ele>804.76</ele>
        <time>2020-07-09T04:04:46Z</time>
      </trkpt>
      <trkpt lat="42.230613070" lon="1.874862760">
        <ele>807.16</ele>
        <time>2020-07-09T04:05:08Z</time>
      </trkpt>
      <trkpt lat="42.230785490" lon="1.874867370">
        <ele>809.09</ele>
        <time>2020-07-09T04:05:25Z</time>
      </trkpt>
      <trkpt lat="42.230963690" lon="1.874832920">
        <ele>811.01</ele>
        <time>2020-07-09T04:05:42Z</time>
      </trkpt>
      <trkpt lat="42.231138870" lon="1.874754890">
        <ele>812.93</ele>
        <time>2020-07-09T04:06:02Z</time>
      </trkpt>
      <trkpt lat="42.231376920" lon="1.874642740">
        <ele>814.85</ele>
        <time>2020-07-09T04:06:22Z</time>
      </trkpt>
      <trkpt lat="42.231500550" lon="1.874555480">
        <ele>816.30</ele>
        <time>2020-07-09T04:06:39Z</time>
      </trkpt>
      <trkpt lat="42.231626280" lon="1.874412150">
        <ele>818.22</ele>
        <time>2020-07-09T04:06:57Z</time>
      </trkpt>
      <trkpt lat="42.231717220" lon="1.874269150">
        <ele>820.62</ele>
        <time>2020-07-09T04:07:14Z</time>
      </trkpt>
      <trkpt lat="42.231862310" lon="1.874017030">
        <ele>822.55</ele>
        <time>2020-07-09T04:07:31Z</time>
      </trkpt>
      <trkpt lat="42.231982930" lon="1.873806810">
        <ele>823.99</ele>
        <time>2020-07-09T04:07:47Z</time>
      </trkpt>
      <trkpt lat="42.232128770" lon="1.873575800">
        <ele>826.39</ele>
        <time>2020-07-09T04:08:06Z</time>
      </trkpt>
      <trkpt lat="42.232225000" lon="1.873381180">
        <ele>827.83</ele>
        <time>2020-07-09T04:08:23Z</time>
      </trkpt>
      <trkpt lat="42.232292970" lon="1.873151760">
        <ele>829.76</ele>
        <time>2020-07-09T04:08:40Z</time>
      </trkpt>
      <trkpt lat="42.232324740" lon="1.872958640">
        <ele>831.20</ele>
        <time>2020-07-09T04:08:55Z</time>
      </trkpt>
      <trkpt lat="42.232353160" lon="1.872747670">
        <ele>833.12</ele>
        <time>2020-07-09T04:09:10Z</time>
      </trkpt>
      <trkpt lat="42.232318460" lon="1.872487080">
        <ele>835.04</ele>
        <time>2020-07-09T04:09:29Z</time>
      </trkpt>
      <trkpt lat="42.232298420" lon="1.872245680">
        <ele>836.96</ele>
        <time>2020-07-09T04:09:45Z</time>
      </trkpt>
      <trkpt lat="42.232305130" lon="1.872066140">
        <ele>838.41</ele>
        <time>2020-07-09T04:09:57Z</time>
      </trkpt>
      <trkpt lat="42.232320970" lon="1.871866730">
        <ele>839.85</ele>
        <time>2020-07-09T04:10:10Z</time>
      </trkpt>
      <trkpt lat="42.232331450" lon="1.871679820">
        <ele>841.29</ele>
        <time>2020-07-09T04:10:22Z</time>
      </trkpt>
      <trkpt lat="42.232324320" lon="1.871502120">
        <ele>842.73</ele>
        <time>2020-07-09T04:10:34Z</time>
      </trkpt>
      <trkpt lat="42.232319880" lon="1.871309420">
        <ele>844.66</ele>
        <time>2020-07-09T04:11:48Z</time>
      </trkpt>
      <trkpt lat="42.232255000" lon="1.871101130">
        <ele>846.58</ele>
        <time>2020-07-09T04:12:03Z</time>
      </trkpt>
      <trkpt lat="42.232208400" lon="1.870934160">
        <ele>847.54</ele>
        <time>2020-07-09T04:12:16Z</time>
      </trkpt>
      <trkpt lat="42.232149730" lon="1.870805670">
        <ele>848.50</ele>
        <time>2020-07-09T04:12:31Z</time>
      </trkpt>
      <trkpt lat="42.232182000" lon="1.870681620">
        <ele>848.98</ele>
        <time>2020-07-09T04:12:43Z</time>
      </trkpt>
      <trkpt lat="42.232221810" lon="1.870564270">
        <ele>849.94</ele>
        <time>2020-07-09T04:12:58Z</time>
      </trkpt>
      <trkpt lat="42.232194740" lon="1.870372910">
        <ele>851.38</ele>
        <time>2020-07-09T04:13:29Z</time>
      </trkpt>
      <trkpt lat="42.232203120" lon="1.870139560">
        <ele>853.31</ele>
        <time>2020-07-09T04:13:44Z</time>
      </trkpt>
      <trkpt lat="42.232209240" lon="1.869921710">
        <ele>854.75</ele>
        <time>2020-07-09T04:13:59Z</time>
      </trkpt>
      <trkpt lat="42.232230610" lon="1.869704120">
        <ele>856.67</ele>
        <time>2020-07-09T04:14:13Z</time>
      </trkpt>
      <trkpt lat="42.232239670" lon="1.869502200">
        <ele>858.11</ele>
        <time>2020-07-09T04:14:26Z</time>
      </trkpt>
      <trkpt lat="42.232268750" lon="1.869196590">
        <ele>860.52</ele>
        <time>2020-07-09T04:14:47Z</time>
      </trkpt>
      <trkpt lat="42.232271350" lon="1.869023090">
        <ele>862.92</ele>
        <time>2020-07-09T04:15:00Z</time>
      </trkpt>
      <trkpt lat="42.232299180" lon="1.868831650">
        <ele>865.32</ele>
        <time>2020-07-09T04:15:14Z</time>
      </trkpt>
      <trkpt lat="42.232333120" lon="1.868654370">
        <ele>866.29</ele>
        <time>2020-07-09T04:15:27Z</time>
      </trkpt>
      <trkpt lat="42.232379730" lon="1.868467790">
        <ele>869.17</ele>
        <time>2020-07-09T04:15:41Z</time>
      </trkpt>
      <trkpt lat="42.232432620" lon="1.868297630">
        <ele>871.57</ele>
        <time>2020-07-09T04:15:55Z</time>
      </trkpt>
      <trkpt lat="42.232478380" lon="1.868181380">
        <ele>873.01</ele>
        <time>2020-07-09T04:16:09Z</time>
      </trkpt>
      <trkpt lat="42.232545770" lon="1.867950790">
        <ele>875.42</ele>
        <time>2020-07-09T04:16:26Z</time>
      </trkpt>
      <trkpt lat="42.232668900" lon="1.867708640">
        <ele>876.38</ele>
        <time>2020-07-09T04:16:43Z</time>
      </trkpt>
      <trkpt lat="42.232791610" lon="1.867564390">
        <ele>876.86</ele>
        <time>2020-07-09T04:16:59Z</time>
      </trkpt>
      <trkpt lat="42.233008290" lon="1.867559190">
        <ele>879.26</ele>
        <time>2020-07-09T04:17:18Z</time>
      </trkpt>
      <trkpt lat="42.233182040" lon="1.867695390">
        <ele>881.19</ele>
        <time>2020-07-09T04:17:34Z</time>
      </trkpt>
      <trkpt lat="42.233369210" lon="1.867926230">
        <ele>882.63</ele>
        <time>2020-07-09T04:18:02Z</time>
      </trkpt>
      <trkpt lat="42.233540120" lon="1.868165030">
        <ele>883.11</ele>
        <time>2020-07-09T04:18:22Z</time>
      </trkpt>
      <trkpt lat="42.233661070" lon="1.868280700">
        <ele>884.55</ele>
        <time>2020-07-09T04:18:36Z</time>
      </trkpt>
      <trkpt lat="42.233829960" lon="1.868330490">
        <ele>885.99</ele>
        <time>2020-07-09T04:18:49Z</time>
      </trkpt>
      <trkpt lat="42.233944040" lon="1.868325040">
        <ele>886.95</ele>
        <time>2020-07-09T04:19:06Z</time>
      </trkpt>
      <trkpt lat="42.234126260" lon="1.868240810">
        <ele>889.36</ele>
        <time>2020-07-09T04:19:23Z</time>
      </trkpt>
      <trkpt lat="42.234305130" lon="1.868221360">
        <ele>891.28</ele>
        <time>2020-07-09T04:19:39Z</time>
      </trkpt>
      <trkpt lat="42.234485760" lon="1.868207610">
        <ele>893.20</ele>
        <time>2020-07-09T04:19:54Z</time>
      </trkpt>
      <trkpt lat="42.234669750" lon="1.868175430">
        <ele>895.12</ele>
        <time>2020-07-09T04:20:11Z</time>
      </trkpt>
      <trkpt lat="42.234819870" lon="1.868174760">
        <ele>897.05</ele>
        <time>2020-07-09T04:20:26Z</time>
      </trkpt>
      <trkpt lat="42.234986330" lon="1.868254470">
        <ele>899.45</ele>
        <time>2020-07-09T04:20:42Z</time>
      </trkpt>
      <trkpt lat="42.235118510" lon="1.868258490">
        <ele>900.89</ele>
        <time>2020-07-09T04:20:56Z</time>
      </trkpt>
      <trkpt lat="42.235315400" lon="1.868245250">
        <ele>903.30</ele>
        <time>2020-07-09T04:21:15Z</time>
      </trkpt>
      <trkpt lat="42.235485810" lon="1.868333760">
        <ele>904.26</ele>
        <time>2020-07-09T04:21:43Z</time>
      </trkpt>
      <trkpt lat="42.235538610" lon="1.868535680">
        <ele>902.33</ele>
        <time>2020-07-09T04:21:59Z</time>
      </trkpt>
      <trkpt lat="42.235576500" lon="1.868658560">
        <ele>901.85</ele>
        <time>2020-07-09T04:22:15Z</time>
      </trkpt>
      <trkpt lat="42.235643720" lon="1.868797450">
        <ele>901.37</ele>
        <time>2020-07-09T04:23:28Z</time>
      </trkpt>
      <trkpt lat="42.235803570" lon="1.868761740">
        <ele>900.41</ele>
        <time>2020-07-09T04:23:43Z</time>
      </trkpt>
      <trkpt lat="42.235895100" lon="1.868665100">
        <ele>899.45</ele>
        <time>2020-07-09T04:23:52Z</time>
      </trkpt>
      <trkpt lat="42.235939770" lon="1.868538360">
        <ele>898.01</ele>
        <time>2020-07-09T04:24:00Z</time>
      </trkpt>
      <trkpt lat="42.236047400" lon="1.868345660">
        <ele>896.09</ele>
        <time>2020-07-09T04:24:15Z</time>
      </trkpt>
      <trkpt lat="42.236186540" lon="1.868166120">
        <ele>893.68</ele>
        <time>2020-07-09T04:24:31Z</time>
      </trkpt>
      <trkpt lat="42.236324840" lon="1.868025560">
        <ele>891.76</ele>
        <time>2020-07-09T04:24:45Z</time>
      </trkpt>
      <trkpt lat="42.236462220" lon="1.867885920">
        <ele>889.84</ele>
        <time>2020-07-09T04:24:59Z</time>
      </trkpt>
      <trkpt lat="42.236586350" lon="1.867710900">
        <ele>887.43</ele>
        <time>2020-07-09T04:25:15Z</time>
      </trkpt>
      <trkpt lat="42.236678720" lon="1.867545780">
        <ele>885.99</ele>
        <time>2020-07-09T04:25:27Z</time>
      </trkpt>
      <trkpt lat="42.236782070" lon="1.867286860">
        <ele>883.59</ele>
        <time>2020-07-09T04:25:45Z</time>
      </trkpt>
      <trkpt lat="42.236861360" lon="1.867084770">
        <ele>881.19</ele>
        <time>2020-07-09T04:26:00Z</time>
      </trkpt>
      <trkpt lat="42.237045850" lon="1.866802640">
        <ele>877.34</ele>
        <time>2020-07-09T04:26:24Z</time>
      </trkpt>
      <trkpt lat="42.237192280" lon="1.866671630">
        <ele>876.38</ele>
        <time>2020-07-09T04:26:39Z</time>
      </trkpt>
      <trkpt lat="42.237400990" lon="1.866547740">
        <ele>873.98</ele>
        <time>2020-07-09T04:26:56Z</time>
      </trkpt>
      <trkpt lat="42.237524790" lon="1.866373990">
        <ele>871.57</ele>
        <time>2020-07-09T04:27:12Z</time>
      </trkpt>
      <trkpt lat="42.237659910" lon="1.866158660">
        <ele>869.65</ele>
        <time>2020-07-09T04:27:29Z</time>
      </trkpt>
      <trkpt lat="42.237751770" lon="1.865952040">
        <ele>867.25</ele>
        <time>2020-07-09T04:27:45Z</time>
      </trkpt>
      <trkpt lat="42.237753530" lon="1.865711820">
        <ele>865.32</ele>
        <time>2020-07-09T04:28:01Z</time>
      </trkpt>
      <trkpt lat="42.237671890" lon="1.865502690">
        <ele>863.88</ele>
        <time>2020-07-09T04:30:44Z</time>
      </trkpt>
      <trkpt lat="42.237884790" lon="1.865519290">
        <ele>865.80</ele>
        <time>2020-07-09T04:32:10Z</time>
      </trkpt>
      <trkpt lat="42.238001470" lon="1.865606710">
        <ele>866.29</ele>
        <time>2020-07-09T04:32:24Z</time>
      </trkpt>
      <trkpt lat="42.238044720" lon="1.865728250">
        <ele>867.73</ele>
        <time>2020-07-09T04:33:37Z</time>
      </trkpt>
      <trkpt lat="42.238099120" lon="1.865816000">
        <ele>868.69</ele>
        <time>2020-07-09T04:34:06Z</time>
      </trkpt>
      <trkpt lat="42.238239010" lon="1.866037370">
        <ele>869.65</ele>
        <time>2020-07-09T04:34:21Z</time>
      </trkpt>
      <trkpt lat="42.238276900" lon="1.866149100">
        <ele>870.13</ele>
        <time>2020-07-09T04:34:34Z</time>
      </trkpt>
      <trkpt lat="42.238374130" lon="1.866361500">
        <ele>871.09</ele>
        <time>2020-07-09T04:34:51Z</time>
      </trkpt>
      <trkpt lat="42.238391980" lon="1.866553780">
        <ele>872.05</ele>
        <time>2020-07-09T04:35:04Z</time>
      </trkpt>
      <trkpt lat="42.238539340" lon="1.866813950">
        <ele>873.01</ele>
        <time>2020-07-09T04:35:21Z</time>
      </trkpt>
      <trkpt lat="42.238653580" lon="1.866988210">
        <ele>874.46</ele>
        <time>2020-07-09T04:35:34Z</time>
      </trkpt>
      <trkpt lat="42.238687110" lon="1.866882180">
        <ele>875.42</ele>
        <time>2020-07-09T04:36:36Z</time>
      </trkpt>
      <trkpt lat="42.238670260" lon="1.866620830">
        <ele>876.86</ele>
        <time>2020-07-09T04:36:51Z</time>
      </trkpt>
      <trkpt lat="42.238641760" lon="1.866485130">
        <ele>878.78</ele>
        <time>2020-07-09T04:37:02Z</time>
      </trkpt>
      <trkpt lat="42.238654000" lon="1.866332080">
        <ele>880.22</ele>
        <time>2020-07-09T04:37:14Z</time>
      </trkpt>
      <trkpt lat="42.238699510" lon="1.866159410">
        <ele>882.15</ele>
        <time>2020-07-09T04:37:28Z</time>
      </trkpt>
      <trkpt lat="42.238806970" lon="1.866062520">
        <ele>883.59</ele>
        <time>2020-07-09T04:37:42Z</time>
      </trkpt>
      <trkpt lat="42.238959440" lon="1.866123370">
        <ele>886.47</ele>
        <time>2020-07-09T04:38:02Z</time>
      </trkpt>
      <trkpt lat="42.239197400" lon="1.866063190">
        <ele>888.40</ele>
        <time>2020-07-09T04:38:20Z</time>
      </trkpt>
      <trkpt lat="42.239365210" lon="1.865930000">
        <ele>888.88</ele>
        <time>2020-07-09T04:38:38Z</time>
      </trkpt>
      <trkpt lat="42.239462770" lon="1.865810560">
        <ele>889.84</ele>
        <time>2020-07-09T04:38:54Z</time>
      </trkpt>
      <trkpt lat="42.239575340" lon="1.865687760">
        <ele>891.28</ele>
        <time>2020-07-09T04:39:11Z</time>
      </trkpt>
      <trkpt lat="42.239670470" lon="1.865629170">
        <ele>891.76</ele>
        <time>2020-07-09T04:39:18Z</time>
      </trkpt>
      <trkpt lat="42.239888400" lon="1.865508470">
        <ele>893.68</ele>
        <time>2020-07-09T04:39:35Z</time>
      </trkpt>
      <trkpt lat="42.240048750" lon="1.865338490">
        <ele>894.16</ele>
        <time>2020-07-09T04:39:54Z</time>
      </trkpt>
      <trkpt lat="42.240160900" lon="1.865223820">
        <ele>895.61</ele>
        <time>2020-07-09T04:40:07Z</time>
      </trkpt>
      <trkpt lat="42.240319650" lon="1.865012770">
        <ele>896.57</ele>
        <time>2020-07-09T04:40:26Z</time>
      </trkpt>
      <trkpt lat="42.240386880" lon="1.864888630">
        <ele>897.53</ele>
        <time>2020-07-09T04:40:36Z</time>
      </trkpt>
      <trkpt lat="42.240509080" lon="1.864673550">
        <ele>898.49</ele>
        <time>2020-07-09T04:40:54Z</time>
      </trkpt>
      <trkpt lat="42.240608160" lon="1.864553100">
        <ele>898.97</ele>
        <time>2020-07-09T04:41:07Z</time>
      </trkpt>
      <trkpt lat="42.240733050" lon="1.864365260">
        <ele>899.45</ele>
        <time>2020-07-09T04:41:32Z</time>
      </trkpt>
      <trkpt lat="42.240878050" lon="1.864192180">
        <ele>901.37</ele>
        <time>2020-07-09T04:41:49Z</time>
      </trkpt>
      <trkpt lat="42.241036720" lon="1.864073320">
        <ele>901.85</ele>
        <time>2020-07-09T04:42:04Z</time>
      </trkpt>
      <trkpt lat="42.241211070" lon="1.863961340">
        <ele>901.85</ele>
        <time>2020-07-09T04:42:19Z</time>
      </trkpt>
      <trkpt lat="42.241379800" lon="1.863967380">
        <ele>903.30</ele>
        <time>2020-07-09T04:42:33Z</time>
      </trkpt>
      <trkpt lat="42.241526140" lon="1.864060750">
        <ele>904.26</ele>
        <time>2020-07-09T04:42:47Z</time>
      </trkpt>
      <trkpt lat="42.241746590" lon="1.864184300">
        <ele>905.22</ele>
        <time>2020-07-09T04:43:09Z</time>
      </trkpt>
      <trkpt lat="42.241844150" lon="1.864243810">
        <ele>906.18</ele>
        <time>2020-07-09T04:43:19Z</time>
      </trkpt>
      <trkpt lat="42.242021600" lon="1.864309190">
        <ele>906.66</ele>
        <time>2020-07-09T04:43:34Z</time>
      </trkpt>
      <trkpt lat="42.242166100" lon="1.864364430">
        <ele>907.14</ele>
        <time>2020-07-09T04:43:48Z</time>
      </trkpt>
      <trkpt lat="42.242303150" lon="1.864373730">
        <ele>908.10</ele>
        <time>2020-07-09T04:43:59Z</time>
      </trkpt>
      <trkpt lat="42.242503470" lon="1.864331570">
        <ele>909.06</ele>
        <time>2020-07-09T04:44:16Z</time>
      </trkpt>
      <trkpt lat="42.242751830" lon="1.864098220">
        <ele>910.03</ele>
        <time>2020-07-09T04:44:41Z</time>
      </trkpt>
      <trkpt lat="42.242874540" lon="1.863898900">
        <ele>911.47</ele>
        <time>2020-07-09T04:44:57Z</time>
      </trkpt>
      <trkpt lat="42.243036980" lon="1.863733440">
        <ele>912.43</ele>
        <time>2020-07-09T04:45:12Z</time>
      </trkpt>
      <trkpt lat="42.243159690" lon="1.863571920">
        <ele>913.39</ele>
        <time>2020-07-09T04:45:27Z</time>
      </trkpt>
      <trkpt lat="42.243319200" lon="1.863461610">
        <ele>913.87</ele>
        <time>2020-07-09T04:45:42Z</time>
      </trkpt>
      <trkpt lat="42.243515420" lon="1.863272350">
        <ele>914.35</ele>
        <time>2020-07-09T04:46:00Z</time>
      </trkpt>
      <trkpt lat="42.243600660" lon="1.863098000">
        <ele>914.83</ele>
        <time>2020-07-09T04:46:17Z</time>
      </trkpt>
      <trkpt lat="42.243655310" lon="1.862898930">
        <ele>915.31</ele>
        <time>2020-07-09T04:46:28Z</time>
      </trkpt>
      <trkpt lat="42.243765030" lon="1.862633480">
        <ele>916.27</ele>
        <time>2020-07-09T04:46:45Z</time>
      </trkpt>
      <trkpt lat="42.243892190" lon="1.862478750">
        <ele>917.24</ele>
        <time>2020-07-09T04:47:00Z</time>
      </trkpt>
      <trkpt lat="42.244087740" lon="1.862320830">
        <ele>918.20</ele>
        <time>2020-07-09T04:47:17Z</time>
      </trkpt>
      <trkpt lat="42.244238440" lon="1.862163590">
        <ele>920.12</ele>
        <time>2020-07-09T04:47:34Z</time>
      </trkpt>
      <trkpt lat="42.244370880" lon="1.862007850">
        <ele>921.08</ele>
        <time>2020-07-09T04:47:50Z</time>
      </trkpt>
      <trkpt lat="42.244475230" lon="1.861898550">
        <ele>922.04</ele>
        <time>2020-07-09T04:48:02Z</time>
      </trkpt>
      <trkpt lat="42.244566680" lon="1.861674760">
        <ele>923.00</ele>
        <time>2020-07-09T04:48:20Z</time>
      </trkpt>
      <trkpt lat="42.244640190" lon="1.861355830">
        <ele>924.45</ele>
        <time>2020-07-09T04:48:38Z</time>
      </trkpt>
      <trkpt lat="42.244762730" lon="1.861147790">
        <ele>925.89</ele>
        <time>2020-07-09T04:48:53Z</time>
      </trkpt>
      <trkpt lat="42.244847720" lon="1.860921480">
        <ele>927.81</ele>
        <time>2020-07-09T04:49:10Z</time>
      </trkpt>
      <trkpt lat="42.244922660" lon="1.860669940">
        <ele>929.25</ele>
        <time>2020-07-09T04:49:27Z</time>
      </trkpt>
      <trkpt lat="42.244962720" lon="1.860472630">
        <ele>931.17</ele>
        <time>2020-07-09T04:49:42Z</time>
      </trkpt>
      <trkpt lat="42.245035400" lon="1.860290650">
        <ele>933.10</ele>
        <time>2020-07-09T04:49:59Z</time>
      </trkpt>
      <trkpt lat="42.245146200" lon="1.860000890">
        <ele>935.98</ele>
        <time>2020-07-09T04:50:19Z</time>
      </trkpt>
      <trkpt lat="42.245191550" lon="1.859745830">
        <ele>937.42</ele>
        <time>2020-07-09T04:50:36Z</time>
      </trkpt>
      <trkpt lat="42.245163390" lon="1.859416170">
        <ele>939.83</ele>
        <time>2020-07-09T04:50:59Z</time>
      </trkpt>
      <trkpt lat="42.245118880" lon="1.859186250">
        <ele>941.27</ele>
        <time>2020-07-09T04:51:14Z</time>
      </trkpt>
      <trkpt lat="42.245069840" lon="1.858987520">
        <ele>942.23</ele>
        <time>2020-07-09T04:51:28Z</time>
      </trkpt>
      <trkpt lat="42.244958530" lon="1.858711750">
        <ele>943.67</ele>
        <time>2020-07-09T04:51:48Z</time>
      </trkpt>
      <trkpt lat="42.244870440" lon="1.858508490">
        <ele>945.11</ele>
        <time>2020-07-09T04:52:04Z</time>
      </trkpt>
      <trkpt lat="42.244767090" lon="1.858293330">
        <ele>947.04</ele>
        <time>2020-07-09T04:52:21Z</time>
      </trkpt>
      <trkpt lat="42.244694500" lon="1.858087050">
        <ele>948.48</ele>
        <time>2020-07-09T04:52:35Z</time>
      </trkpt>
      <trkpt lat="42.244630210" lon="1.857904750">
        <ele>949.92</ele>
        <time>2020-07-09T04:52:47Z</time>
      </trkpt>
      <trkpt lat="42.244526700" lon="1.857733670">
        <ele>951.36</ele>
        <time>2020-07-09T04:53:03Z</time>
      </trkpt>
      <trkpt lat="42.244387980" lon="1.857591010">
        <ele>953.28</ele>
        <time>2020-07-09T04:53:19Z</time>
      </trkpt>
      <trkpt lat="42.244263760" lon="1.857465530">
        <ele>954.73</ele>
        <time>2020-07-09T04:53:36Z</time>
      </trkpt>
      <trkpt lat="42.244109610" lon="1.857318510">
        <ele>956.17</ele>
        <time>2020-07-09T04:56:03Z</time>
      </trkpt>
      <trkpt lat="42.244120760" lon="1.857161860">
        <ele>955.69</ele>
        <time>2020-07-09T04:56:12Z</time>
      </trkpt>
      <trkpt lat="42.244058570" lon="1.856968320">
        <ele>955.21</ele>
        <time>2020-07-09T04:56:27Z</time>
      </trkpt>
      <trkpt lat="42.244012720" lon="1.856830440">
        <ele>954.73</ele>
        <time>2020-07-09T04:56:37Z</time>
      </trkpt>
      <trkpt lat="42.243947840" lon="1.856647290">
        <ele>954.73</ele>
        <time>2020-07-09T04:56:49Z</time>
      </trkpt>
      <trkpt lat="42.243850530" lon="1.856379320">
        <ele>953.28</ele>
        <time>2020-07-09T04:57:06Z</time>
      </trkpt>
      <trkpt lat="42.243808700" lon="1.856190230">
        <ele>953.28</ele>
        <time>2020-07-09T04:57:18Z</time>
      </trkpt>
      <trkpt lat="42.243764030" lon="1.855994680">
        <ele>952.80</ele>
        <time>2020-07-09T04:57:30Z</time>
      </trkpt>
      <trkpt lat="42.243645420" lon="1.855801810">
        <ele>952.80</ele>
        <time>2020-07-09T04:57:45Z</time>
      </trkpt>
      <trkpt lat="42.243551800" lon="1.855709860">
        <ele>951.84</ele>
        <time>2020-07-09T04:57:55Z</time>
      </trkpt>
      <trkpt lat="42.243510560" lon="1.855445580">
        <ele>952.32</ele>
        <time>2020-07-09T04:58:10Z</time>
      </trkpt>
      <trkpt lat="42.243490110" lon="1.855294790">
        <ele>951.36</ele>
        <time>2020-07-09T04:58:19Z</time>
      </trkpt>
      <trkpt lat="42.243470330" lon="1.855167630">
        <ele>951.36</ele>
        <time>2020-07-09T04:58:27Z</time>
      </trkpt>
      <trkpt lat="42.243377960" lon="1.854935540">
        <ele>951.36</ele>
        <time>2020-07-09T04:58:41Z</time>
      </trkpt>
      <trkpt lat="42.243287350" lon="1.854744940">
        <ele>950.88</ele>
        <time>2020-07-09T04:58:55Z</time>
      </trkpt>
      <trkpt lat="42.243186350" lon="1.854458020">
        <ele>949.44</ele>
        <time>2020-07-09T04:59:13Z</time>
      </trkpt>
      <trkpt lat="42.243125240" lon="1.854245290">
        <ele>948.96</ele>
        <time>2020-07-09T04:59:27Z</time>
      </trkpt>
      <trkpt lat="42.243141590" lon="1.854025180">
        <ele>948.48</ele>
        <time>2020-07-09T04:59:40Z</time>
      </trkpt>
      <trkpt lat="42.243163210" lon="1.853803560">
        <ele>948.48</ele>
        <time>2020-07-09T04:59:53Z</time>
      </trkpt>
      <trkpt lat="42.243206040" lon="1.853567280">
        <ele>948.48</ele>
        <time>2020-07-09T05:00:06Z</time>
      </trkpt>
      <trkpt lat="42.243204870" lon="1.853444150">
        <ele>948.48</ele>
        <time>2020-07-09T05:00:13Z</time>
      </trkpt>
      <trkpt lat="42.243210400" lon="1.853264270">
        <ele>948.96</ele>
        <time>2020-07-09T05:00:23Z</time>
      </trkpt>
      <trkpt lat="42.243188860" lon="1.853109210">
        <ele>948.96</ele>
        <time>2020-07-09T05:00:31Z</time>
      </trkpt>
      <trkpt lat="42.243130610" lon="1.852854400">
        <ele>948.96</ele>
        <time>2020-07-09T05:00:47Z</time>
      </trkpt>
      <trkpt lat="42.243064730" lon="1.852596820">
        <ele>948.96</ele>
        <time>2020-07-09T05:01:02Z</time>
      </trkpt>
      <trkpt lat="42.243035890" lon="1.852359360">
        <ele>949.44</ele>
        <time>2020-07-09T05:01:17Z</time>
      </trkpt>
      <trkpt lat="42.243002280" lon="1.852088960">
        <ele>949.44</ele>
        <time>2020-07-09T05:01:32Z</time>
      </trkpt>
      <trkpt lat="42.243079810" lon="1.851833480">
        <ele>950.40</ele>
        <time>2020-07-09T05:01:48Z</time>
      </trkpt>
      <trkpt lat="42.243243430" lon="1.851619830">
        <ele>952.32</ele>
        <time>2020-07-09T05:02:06Z</time>
      </trkpt>
      <trkpt lat="42.243314420" lon="1.851429890">
        <ele>952.80</ele>
        <time>2020-07-09T05:02:20Z</time>
      </trkpt>
      <trkpt lat="42.243379300" lon="1.851234180">
        <ele>953.77</ele>
        <time>2020-07-09T05:02:34Z</time>
      </trkpt>
      <trkpt lat="42.243471580" lon="1.850945000">
        <ele>955.21</ele>
        <time>2020-07-09T05:02:53Z</time>
      </trkpt>
      <trkpt lat="42.243522290" lon="1.850702340">
        <ele>956.65</ele>
        <time>2020-07-09T05:03:10Z</time>
      </trkpt>
      <trkpt lat="42.243536460" lon="1.850550970">
        <ele>958.09</ele>
        <time>2020-07-09T05:03:20Z</time>
      </trkpt>
      <trkpt lat="42.243642160" lon="1.850545520">
        <ele>959.05</ele>
        <time>2020-07-09T05:03:34Z</time>
      </trkpt>
      <trkpt lat="42.243718430" lon="1.850770490">
        <ele>960.01</ele>
        <time>2020-07-09T05:03:48Z</time>
      </trkpt>
      <trkpt lat="42.243719350" lon="1.850993360">
        <ele>961.46</ele>
        <time>2020-07-09T05:04:01Z</time>
      </trkpt>
      <trkpt lat="42.243750780" lon="1.851133090">
        <ele>962.42</ele>
        <time>2020-07-09T05:04:13Z</time>
      </trkpt>
      <trkpt lat="42.243792780" lon="1.851335340">
        <ele>963.86</ele>
        <time>2020-07-09T05:04:28Z</time>
      </trkpt>
      <trkpt lat="42.243852210" lon="1.851529970">
        <ele>964.82</ele>
        <time>2020-07-09T05:04:41Z</time>
      </trkpt>
      <trkpt lat="42.243949690" lon="1.851607920">
        <ele>965.30</ele>
        <time>2020-07-09T05:04:52Z</time>
      </trkpt>
      <trkpt lat="42.244116150" lon="1.851723430">
        <ele>965.30</ele>
        <time>2020-07-09T05:05:06Z</time>
      </trkpt>
      <trkpt lat="42.244190830" lon="1.851815460">
        <ele>965.78</ele>
        <time>2020-07-09T05:05:15Z</time>
      </trkpt>
      <trkpt lat="42.244246660" lon="1.851923250">
        <ele>965.78</ele>
        <time>2020-07-09T05:05:23Z</time>
      </trkpt>
      <trkpt lat="42.244327120" lon="1.852034140">
        <ele>965.78</ele>
        <time>2020-07-09T05:05:32Z</time>
      </trkpt>
      <trkpt lat="42.244471040" lon="1.852115280">
        <ele>966.26</ele>
        <time>2020-07-09T05:05:45Z</time>
      </trkpt>
      <trkpt lat="42.244602640" lon="1.852084690">
        <ele>966.26</ele>
        <time>2020-07-09T05:05:57Z</time>
      </trkpt>
      <trkpt lat="42.244771450" lon="1.852099440">
        <ele>966.26</ele>
        <time>2020-07-09T05:06:11Z</time>
      </trkpt>
      <trkpt lat="42.244957780" lon="1.852199440">
        <ele>966.26</ele>
        <time>2020-07-09T05:06:24Z</time>
      </trkpt>
      <trkpt lat="42.245088960" lon="1.852384510">
        <ele>966.26</ele>
        <time>2020-07-09T05:06:39Z</time>
      </trkpt>
      <trkpt lat="42.245185260" lon="1.852528420">
        <ele>966.74</ele>
        <time>2020-07-09T05:06:49Z</time>
      </trkpt>
      <trkpt lat="42.245278970" lon="1.852703190">
        <ele>967.22</ele>
        <time>2020-07-09T05:07:02Z</time>
      </trkpt>
      <trkpt lat="42.245390700" lon="1.852884150">
        <ele>968.18</ele>
        <time>2020-07-09T05:07:16Z</time>
      </trkpt>
      <trkpt lat="42.245456590" lon="1.852997730">
        <ele>969.15</ele>
        <time>2020-07-09T05:07:25Z</time>
      </trkpt>
      <trkpt lat="42.245545770" lon="1.853100070">
        <ele>969.63</ele>
        <time>2020-07-09T05:07:35Z</time>
      </trkpt>
      <trkpt lat="42.245697980" lon="1.853249600">
        <ele>971.07</ele>
        <time>2020-07-09T05:07:53Z</time>
      </trkpt>
      <trkpt lat="42.245800330" lon="1.853334760">
        <ele>972.51</ele>
        <time>2020-07-09T05:08:06Z</time>
      </trkpt>
      <trkpt lat="42.245986410" lon="1.853483040">
        <ele>973.47</ele>
        <time>2020-07-09T05:08:22Z</time>
      </trkpt>
      <trkpt lat="42.246068050" lon="1.853537100">
        <ele>974.91</ele>
        <time>2020-07-09T05:08:30Z</time>
      </trkpt>
      <trkpt lat="42.246206850" lon="1.853590750">
        <ele>976.36</ele>
        <time>2020-07-09T05:08:43Z</time>
      </trkpt>
      <trkpt lat="42.246368620" lon="1.853647740">
        <ele>978.28</ele>
        <time>2020-07-09T05:08:58Z</time>
      </trkpt>
      <trkpt lat="42.246504740" lon="1.853703480">
        <ele>979.72</ele>
        <time>2020-07-09T05:09:12Z</time>
      </trkpt>
      <trkpt lat="42.246619240" lon="1.853682530">
        <ele>980.20</ele>
        <time>2020-07-09T05:09:23Z</time>
      </trkpt>
      <trkpt lat="42.246766340" lon="1.853542220">
        <ele>983.09</ele>
        <time>2020-07-09T05:09:40Z</time>
      </trkpt>
      <trkpt lat="42.246818900" lon="1.853384380">
        <ele>983.57</ele>
        <time>2020-07-09T05:09:53Z</time>
      </trkpt>
      <trkpt lat="42.246894580" lon="1.853204430">
        <ele>985.49</ele>
        <time>2020-07-09T05:10:08Z</time>
      </trkpt>
      <trkpt lat="42.246990980" lon="1.852941820">
        <ele>986.93</ele>
        <time>2020-07-09T05:10:25Z</time>
      </trkpt>
      <trkpt lat="42.247054850" lon="1.852793210">
        <ele>987.89</ele>
        <time>2020-07-09T05:10:37Z</time>
      </trkpt>
      <trkpt lat="42.247161720" lon="1.852650970">
        <ele>988.85</ele>
        <time>2020-07-09T05:10:51Z</time>
      </trkpt>
      <trkpt lat="42.247265990" lon="1.852488860">
        <ele>989.81</ele>
        <time>2020-07-09T05:11:03Z</time>
      </trkpt>
      <trkpt lat="42.247407730" lon="1.852430860">
        <ele>990.30</ele>
        <time>2020-07-09T05:11:17Z</time>
      </trkpt>
      <trkpt lat="42.247430780" lon="1.852297420">
        <ele>989.81</ele>
        <time>2020-07-09T05:11:45Z</time>
      </trkpt>
      <trkpt lat="42.247472770" lon="1.852040260">
        <ele>990.78</ele>
        <time>2020-07-09T05:12:02Z</time>
      </trkpt>
      <trkpt lat="42.247542340" lon="1.851746810">
        <ele>991.26</ele>
        <time>2020-07-09T05:12:20Z</time>
      </trkpt>
      <trkpt lat="42.247606040" lon="1.851464340">
        <ele>991.26</ele>
        <time>2020-07-09T05:12:37Z</time>
      </trkpt>
      <trkpt lat="42.247838810" lon="1.851285810">
        <ele>991.74</ele>
        <time>2020-07-09T05:12:58Z</time>
      </trkpt>
      <trkpt lat="42.248025220" lon="1.851235350">
        <ele>992.22</ele>
        <time>2020-07-09T05:13:12Z</time>
      </trkpt>
      <trkpt lat="42.248210800" lon="1.851274160">
        <ele>992.70</ele>
        <time>2020-07-09T05:13:25Z</time>
      </trkpt>
      <trkpt lat="42.248394360" lon="1.851264010">
        <ele>992.22</ele>
        <time>2020-07-09T05:13:41Z</time>
      </trkpt>
      <trkpt lat="42.248516730" lon="1.851063770">
        <ele>992.70</ele>
        <time>2020-07-09T05:13:56Z</time>
      </trkpt>
      <trkpt lat="42.248513380" lon="1.850808790">
        <ele>993.18</ele>
        <time>2020-07-09T05:14:10Z</time>
      </trkpt>
      <trkpt lat="42.248500310" lon="1.850678460">
        <ele>993.18</ele>
        <time>2020-07-09T05:14:17Z</time>
      </trkpt>
      <trkpt lat="42.248476000" lon="1.850513580">
        <ele>993.66</ele>
        <time>2020-07-09T05:14:27Z</time>
      </trkpt>
      <trkpt lat="42.248434170" lon="1.850295150">
        <ele>993.18</ele>
        <time>2020-07-09T05:14:42Z</time>
      </trkpt>
      <trkpt lat="42.248437780" lon="1.850110080">
        <ele>993.66</ele>
        <time>2020-07-09T05:14:59Z</time>
      </trkpt>
      <trkpt lat="42.248429400" lon="1.849834480">
        <ele>994.14</ele>
        <time>2020-07-09T05:15:14Z</time>
      </trkpt>
      <trkpt lat="42.248431990" lon="1.849709000">
        <ele>994.62</ele>
        <time>2020-07-09T05:15:21Z</time>
      </trkpt>
      <trkpt lat="42.248469210" lon="1.849372890">
        <ele>995.10</ele>
        <time>2020-07-09T05:15:41Z</time>
      </trkpt>
      <trkpt lat="42.248546740" lon="1.849128220">
        <ele>995.58</ele>
        <time>2020-07-09T05:15:57Z</time>
      </trkpt>
      <trkpt lat="42.248620670" lon="1.848856060">
        <ele>995.58</ele>
        <time>2020-07-09T05:16:13Z</time>
      </trkpt>
      <trkpt lat="42.248641880" lon="1.848731170">
        <ele>995.58</ele>
        <time>2020-07-09T05:16:20Z</time>
      </trkpt>
      <trkpt lat="42.248694430" lon="1.848457750">
        <ele>995.58</ele>
        <time>2020-07-09T05:16:37Z</time>
      </trkpt>
      <trkpt lat="42.248729720" lon="1.848325740">
        <ele>995.58</ele>
        <time>2020-07-09T05:16:47Z</time>
      </trkpt>
      <trkpt lat="42.248791070" lon="1.848171090">
        <ele>996.06</ele>
        <time>2020-07-09T05:17:51Z</time>
      </trkpt>
      <trkpt lat="42.248969860" lon="1.847999600">
        <ele>996.06</ele>
        <time>2020-07-09T05:18:09Z</time>
      </trkpt>
      <trkpt lat="42.249226180" lon="1.847938490">
        <ele>996.54</ele>
        <time>2020-07-09T05:18:24Z</time>
      </trkpt>
      <trkpt lat="42.249376300" lon="1.847872110">
        <ele>997.02</ele>
        <time>2020-07-09T05:18:42Z</time>
      </trkpt>
      <trkpt lat="42.249491300" lon="1.847788370">
        <ele>997.02</ele>
        <time>2020-07-09T05:18:53Z</time>
      </trkpt>
      <trkpt lat="42.249598750" lon="1.847692820">
        <ele>997.51</ele>
        <time>2020-07-09T05:19:06Z</time>
      </trkpt>
      <trkpt lat="42.249722720" lon="1.847565420">
        <ele>998.47</ele>
        <time>2020-07-09T05:19:23Z</time>
      </trkpt>
      <trkpt lat="42.249819030" lon="1.847461060">
        <ele>998.95</ele>
        <time>2020-07-09T05:19:39Z</time>
      </trkpt>
      <trkpt lat="42.249870500" lon="1.847319910">
        <ele>999.43</ele>
        <time>2020-07-09T05:20:24Z</time>
      </trkpt>
      <trkpt lat="42.249935460" lon="1.846955470">
        <ele>1000.39</ele>
        <time>2020-07-09T05:20:44Z</time>
      </trkpt>
      <trkpt lat="42.250064700" lon="1.846587500">
        <ele>1001.35</ele>
        <time>2020-07-09T05:21:07Z</time>
      </trkpt>
      <trkpt lat="42.250207780" lon="1.846412740">
        <ele>1002.31</ele>
        <time>2020-07-09T05:21:22Z</time>
      </trkpt>
      <trkpt lat="42.250306860" lon="1.846196740">
        <ele>1003.27</ele>
        <time>2020-07-09T05:21:40Z</time>
      </trkpt>
      <trkpt lat="42.250411300" lon="1.845966480">
        <ele>1004.23</ele>
        <time>2020-07-09T05:21:56Z</time>
      </trkpt>
      <trkpt lat="42.250545910" lon="1.845763140">
        <ele>1005.20</ele>
        <time>2020-07-09T05:22:12Z</time>
      </trkpt>
      <trkpt lat="42.250672480" lon="1.845519140">
        <ele>1006.16</ele>
        <time>2020-07-09T05:22:29Z</time>
      </trkpt>
      <trkpt lat="42.250831650" lon="1.845376990">
        <ele>1007.12</ele>
        <time>2020-07-09T05:22:44Z</time>
      </trkpt>
      <trkpt lat="42.251026190" lon="1.845332980">
        <ele>1007.60</ele>
        <time>2020-07-09T05:22:58Z</time>
      </trkpt>
      <trkpt lat="42.251290640" lon="1.845314040">
        <ele>1009.52</ele>
        <time>2020-07-09T05:23:20Z</time>
      </trkpt>
      <trkpt lat="42.251429280" lon="1.845277070">
        <ele>1010.48</ele>
        <time>2020-07-09T05:23:34Z</time>
      </trkpt>
      <trkpt lat="42.251529780" lon="1.845171210">
        <ele>1011.93</ele>
        <time>2020-07-09T05:23:48Z</time>
      </trkpt>
      <trkpt lat="42.251582500" lon="1.845004740">
        <ele>1012.89</ele>
        <time>2020-07-09T05:24:00Z</time>
      </trkpt>
      <trkpt lat="42.251689030" lon="1.844749100">
        <ele>1014.81</ele>
        <time>2020-07-09T05:24:18Z</time>
      </trkpt>
      <trkpt lat="42.251826580" lon="1.844552620">
        <ele>1016.25</ele>
        <time>2020-07-09T05:24:31Z</time>
      </trkpt>
      <trkpt lat="42.252004360" lon="1.844405100">
        <ele>1017.21</ele>
        <time>2020-07-09T05:24:47Z</time>
      </trkpt>
      <trkpt lat="42.252191950" lon="1.844312570">
        <ele>1018.17</ele>
        <time>2020-07-09T05:25:01Z</time>
      </trkpt>
      <trkpt lat="42.252382640" lon="1.844218770">
        <ele>1019.13</ele>
        <time>2020-07-09T05:25:16Z</time>
      </trkpt>
      <trkpt lat="42.252510290" lon="1.844292870">
        <ele>1018.65</ele>
        <time>2020-07-09T05:25:31Z</time>
      </trkpt>
      <trkpt lat="42.252739620" lon="1.844299320">
        <ele>1022.50</ele>
        <time>2020-07-09T05:38:16Z</time>
      </trkpt>
      <trkpt lat="42.252865180" lon="1.844240730">
        <ele>1022.98</ele>
        <time>2020-07-09T05:38:30Z</time>
      </trkpt>
      <trkpt lat="42.253092330" lon="1.843996150">
        <ele>1020.58</ele>
        <time>2020-07-09T05:38:52Z</time>
      </trkpt>
      <trkpt lat="42.253242870" lon="1.843812420">
        <ele>1019.13</ele>
        <time>2020-07-09T05:39:07Z</time>
      </trkpt>
      <trkpt lat="42.253392740" lon="1.843497430">
        <ele>1016.25</ele>
        <time>2020-07-09T05:39:29Z</time>
      </trkpt>
      <trkpt lat="42.253506310" lon="1.843319650">
        <ele>1014.33</ele>
        <time>2020-07-09T05:39:44Z</time>
      </trkpt>
      <trkpt lat="42.253641180" lon="1.843163320">
        <ele>1012.41</ele>
        <time>2020-07-09T05:39:58Z</time>
      </trkpt>
      <trkpt lat="42.253845530" lon="1.843043130">
        <ele>1010.00</ele>
        <time>2020-07-09T05:40:15Z</time>
      </trkpt>
      <trkpt lat="42.253971680" lon="1.842977670">
        <ele>1008.56</ele>
        <time>2020-07-09T05:40:25Z</time>
      </trkpt>
      <trkpt lat="42.254131180" lon="1.842953190">
        <ele>1006.64</ele>
        <time>2020-07-09T05:40:38Z</time>
      </trkpt>
      <trkpt lat="42.254290020" lon="1.842886220">
        <ele>1005.20</ele>
        <time>2020-07-09T05:40:52Z</time>
      </trkpt>
      <trkpt lat="42.254451460" lon="1.842897950">
        <ele>1003.27</ele>
        <time>2020-07-09T05:41:06Z</time>
      </trkpt>
      <trkpt lat="42.254592440" lon="1.842952100">
        <ele>1001.35</ele>
        <time>2020-07-09T05:41:18Z</time>
      </trkpt>
      <trkpt lat="42.254772650" lon="1.842969950">
        <ele>999.91</ele>
        <time>2020-07-09T05:41:33Z</time>
      </trkpt>
      <trkpt lat="42.254972980" lon="1.843011030">
        <ele>997.99</ele>
        <time>2020-07-09T05:41:48Z</time>
      </trkpt>
      <trkpt lat="42.255163840" lon="1.843024860">
        <ele>996.06</ele>
        <time>2020-07-09T05:42:05Z</time>
      </trkpt>
      <trkpt lat="42.255349490" lon="1.842931980">
        <ele>994.62</ele>
        <time>2020-07-09T05:42:21Z</time>
      </trkpt>
      <trkpt lat="42.255438680" lon="1.842890070">
        <ele>993.18</ele>
        <time>2020-07-09T05:42:36Z</time>
      </trkpt>
      <trkpt lat="42.255606400" lon="1.842735850">
        <ele>990.78</ele>
        <time>2020-07-09T05:42:56Z</time>
      </trkpt>
      <trkpt lat="42.255745290" lon="1.842667870">
        <ele>989.81</ele>
        <time>2020-07-09T05:43:09Z</time>
      </trkpt>
      <trkpt lat="42.255943270" lon="1.842626380">
        <ele>987.89</ele>
        <time>2020-07-09T05:43:23Z</time>
      </trkpt>
      <trkpt lat="42.256002440" lon="1.842509120">
        <ele>988.37</ele>
        <time>2020-07-09T05:43:46Z</time>
      </trkpt>
      <trkpt lat="42.256134380" lon="1.842336870">
        <ele>985.97</ele>
        <time>2020-07-09T05:44:18Z</time>
      </trkpt>
      <trkpt lat="42.256210400" lon="1.842172920">
        <ele>984.05</ele>
        <time>2020-07-09T05:44:31Z</time>
      </trkpt>
      <trkpt lat="42.256295640" lon="1.842022210">
        <ele>982.60</ele>
        <time>2020-07-09T05:44:43Z</time>
      </trkpt>
      <trkpt lat="42.256461520" lon="1.841869660">
        <ele>981.16</ele>
        <time>2020-07-09T05:44:57Z</time>
      </trkpt>
      <trkpt lat="42.256542160" lon="1.841813920">
        <ele>980.20</ele>
        <time>2020-07-09T05:45:04Z</time>
      </trkpt>
      <trkpt lat="42.256634020" lon="1.841746950">
        <ele>979.24</ele>
        <time>2020-07-09T05:45:12Z</time>
      </trkpt>
      <trkpt lat="42.256688670" lon="1.841649970">
        <ele>978.28</ele>
        <time>2020-07-09T05:45:18Z</time>
      </trkpt>
      <trkpt lat="42.256836950" lon="1.841464060">
        <ele>976.36</ele>
        <time>2020-07-09T05:45:31Z</time>
      </trkpt>
      <trkpt lat="42.256920680" lon="1.841272530">
        <ele>974.91</ele>
        <time>2020-07-09T05:45:41Z</time>
      </trkpt>
      <trkpt lat="42.256932500" lon="1.841060810">
        <ele>973.95</ele>
        <time>2020-07-09T05:45:52Z</time>
      </trkpt>
      <trkpt lat="42.256958570" lon="1.840909260">
        <ele>971.55</ele>
        <time>2020-07-09T05:46:04Z</time>
      </trkpt>
      <trkpt lat="42.256941130" lon="1.840651690">
        <ele>970.59</ele>
        <time>2020-07-09T05:46:15Z</time>
      </trkpt>
      <trkpt lat="42.256989670" lon="1.840392520">
        <ele>969.15</ele>
        <time>2020-07-09T05:46:34Z</time>
      </trkpt>
      <trkpt lat="42.256963010" lon="1.840198980">
        <ele>967.70</ele>
        <time>2020-07-09T05:46:46Z</time>
      </trkpt>
      <trkpt lat="42.256919840" lon="1.840011310">
        <ele>966.74</ele>
        <time>2020-07-09T05:46:55Z</time>
      </trkpt>
      <trkpt lat="42.256980530" lon="1.839844260">
        <ele>966.74</ele>
        <time>2020-07-09T05:47:01Z</time>
      </trkpt>
      <trkpt lat="42.257085390" lon="1.839662620">
        <ele>965.30</ele>
        <time>2020-07-09T05:47:14Z</time>
      </trkpt>
      <trkpt lat="42.257155880" lon="1.839577460">
        <ele>964.82</ele>
        <time>2020-07-09T05:47:19Z</time>
      </trkpt>
      <trkpt lat="42.257303650" lon="1.839416530">
        <ele>963.38</ele>
        <time>2020-07-09T05:47:35Z</time>
      </trkpt>
      <trkpt lat="42.257401470" lon="1.839340930">
        <ele>963.38</ele>
        <time>2020-07-09T05:47:44Z</time>
      </trkpt>
      <trkpt lat="42.257537170" lon="1.839264060">
        <ele>961.94</ele>
        <time>2020-07-09T05:47:56Z</time>
      </trkpt>
      <trkpt lat="42.257717130" lon="1.839187450">
        <ele>961.46</ele>
        <time>2020-07-09T05:48:09Z</time>
      </trkpt>
      <trkpt lat="42.257837750" lon="1.839125010">
        <ele>960.01</ele>
        <time>2020-07-09T05:48:21Z</time>
      </trkpt>
      <trkpt lat="42.258023070" lon="1.839029120">
        <ele>959.05</ele>
        <time>2020-07-09T05:48:34Z</time>
      </trkpt>
      <trkpt lat="42.258176210" lon="1.838978910">
        <ele>958.57</ele>
        <time>2020-07-09T05:48:44Z</time>
      </trkpt>
      <trkpt lat="42.258472420" lon="1.838936160">
        <ele>955.69</ele>
        <time>2020-07-09T05:49:06Z</time>
      </trkpt>
      <trkpt lat="42.258514920" lon="1.838823760">
        <ele>954.73</ele>
        <time>2020-07-09T05:49:16Z</time>
      </trkpt>
      <trkpt lat="42.258685740" lon="1.838568370">
        <ele>952.80</ele>
        <time>2020-07-09T05:49:30Z</time>
      </trkpt>
      <trkpt lat="42.258749780" lon="1.838411880">
        <ele>950.40</ele>
        <time>2020-07-09T05:49:44Z</time>
      </trkpt>
      <trkpt lat="42.258865950" lon="1.838284720">
        <ele>949.44</ele>
        <time>2020-07-09T05:49:52Z</time>
      </trkpt>
      <trkpt lat="42.258950780" lon="1.838174420">
        <ele>948.00</ele>
        <time>2020-07-09T05:50:04Z</time>
      </trkpt>
      <trkpt lat="42.259149770" lon="1.838027980">
        <ele>946.56</ele>
        <time>2020-07-09T05:50:18Z</time>
      </trkpt>
      <trkpt lat="42.259315140" lon="1.837887750">
        <ele>945.11</ele>
        <time>2020-07-09T05:50:32Z</time>
      </trkpt>
      <trkpt lat="42.259435590" lon="1.837699660">
        <ele>944.15</ele>
        <time>2020-07-09T05:50:46Z</time>
      </trkpt>
      <trkpt lat="42.259484710" lon="1.837545100">
        <ele>943.19</ele>
        <time>2020-07-09T05:50:53Z</time>
      </trkpt>
      <trkpt lat="42.259685450" lon="1.837222060">
        <ele>940.79</ele>
        <time>2020-07-09T05:51:16Z</time>
      </trkpt>
      <trkpt lat="42.259770950" lon="1.836933560">
        <ele>939.35</ele>
        <time>2020-07-09T05:51:32Z</time>
      </trkpt>
      <trkpt lat="42.259822330" lon="1.836796510">
        <ele>938.38</ele>
        <time>2020-07-09T05:51:44Z</time>
      </trkpt>
      <trkpt lat="42.259876310" lon="1.836578500">
        <ele>937.42</ele>
        <time>2020-07-09T05:51:56Z</time>
      </trkpt>
      <trkpt lat="42.259915960" lon="1.836409860">
        <ele>936.46</ele>
        <time>2020-07-09T05:52:05Z</time>
      </trkpt>
      <trkpt lat="42.259936070" lon="1.836199720">
        <ele>935.50</ele>
        <time>2020-07-09T05:52:19Z</time>
      </trkpt>
      <trkpt lat="42.259846720" lon="1.835951790">
        <ele>933.58</ele>
        <time>2020-07-09T05:52:43Z</time>
      </trkpt>
      <trkpt lat="42.259806320" lon="1.835813490">
        <ele>934.06</ele>
        <time>2020-07-09T05:52:55Z</time>
      </trkpt>
      <trkpt lat="42.259805400" lon="1.835756990">
        <ele>933.58</ele>
        <time>2020-07-09T05:53:16Z</time>
      </trkpt>
      <trkpt lat="42.259817220" lon="1.835620280">
        <ele>933.10</ele>
        <time>2020-07-09T05:53:24Z</time>
      </trkpt>
      <trkpt lat="42.259885780" lon="1.835446270">
        <ele>933.10</ele>
        <time>2020-07-09T05:53:38Z</time>
      </trkpt>
      <trkpt lat="42.259991730" lon="1.835327420">
        <ele>932.62</ele>
        <time>2020-07-09T05:53:47Z</time>
      </trkpt>
      <trkpt lat="42.260064650" lon="1.835256260">
        <ele>933.10</ele>
        <time>2020-07-09T05:53:54Z</time>
      </trkpt>
      <trkpt lat="42.260207140" lon="1.835116110">
        <ele>933.10</ele>
        <time>2020-07-09T05:54:09Z</time>
      </trkpt>
      <trkpt lat="42.260360450" lon="1.834937580">
        <ele>933.10</ele>
        <time>2020-07-09T05:54:23Z</time>
      </trkpt>
      <trkpt lat="42.260508050" lon="1.834825760">
        <ele>933.10</ele>
        <time>2020-07-09T05:54:36Z</time>
      </trkpt>
      <trkpt lat="42.260688680" lon="1.834692820">
        <ele>932.62</ele>
        <time>2020-07-09T05:54:50Z</time>
      </trkpt>
      <trkpt lat="42.260853810" lon="1.834528290">
        <ele>933.58</ele>
        <time>2020-07-09T05:55:05Z</time>
      </trkpt>
      <trkpt lat="42.261003590" lon="1.834446060">
        <ele>933.10</ele>
        <time>2020-07-09T05:55:19Z</time>
      </trkpt>
      <trkpt lat="42.260993370" lon="1.834371710">
        <ele>933.10</ele>
        <time>2020-07-09T05:56:34Z</time>
      </trkpt>
      <trkpt lat="42.260939800" lon="1.834175240">
        <ele>933.58</ele>
        <time>2020-07-09T05:57:25Z</time>
      </trkpt>
      <trkpt lat="42.260909970" lon="1.833925630">
        <ele>933.58</ele>
        <time>2020-07-09T05:57:41Z</time>
      </trkpt>
      <trkpt lat="42.260824550" lon="1.833826890">
        <ele>939.35</ele>
        <time>2020-07-09T05:58:25Z</time>
      </trkpt>
      <trkpt lat="42.260779460" lon="1.833718680">
        <ele>943.67</ele>
        <time>2020-07-09T05:58:54Z</time>
      </trkpt>
      <trkpt lat="42.260765880" lon="1.833803170">
        <ele>944.15</ele>
        <time>2020-07-09T05:59:23Z</time>
      </trkpt>
      <trkpt lat="42.260754820" lon="1.833738800">
        <ele>944.15</ele>
        <time>2020-07-09T06:00:41Z</time>
      </trkpt>
      <trkpt lat="42.260718350" lon="1.833891930">
        <ele>944.15</ele>
        <time>2020-07-09T06:01:04Z</time>
      </trkpt>
      <trkpt lat="42.260637640" lon="1.833805770">
        <ele>944.15</ele>
        <time>2020-07-09T06:01:32Z</time>
      </trkpt>
      <trkpt lat="42.260729340" lon="1.833639970">
        <ele>944.15</ele>
        <time>2020-07-09T06:01:51Z</time>
      </trkpt>
      <trkpt lat="42.260800580" lon="1.833801830">
        <ele>941.27</ele>
        <time>2020-07-09T06:02:06Z</time>
      </trkpt>
      <trkpt lat="42.260816170" lon="1.833981450">
        <ele>938.38</ele>
        <time>2020-07-09T06:02:21Z</time>
      </trkpt>
      <trkpt lat="42.260838050" lon="1.834000900">
        <ele>935.50</ele>
        <time>2020-07-09T06:02:40Z</time>
      </trkpt>
      <trkpt lat="42.260904680" lon="1.833865030">
        <ele>934.06</ele>
        <time>2020-07-09T06:02:55Z</time>
      </trkpt>
      <trkpt lat="42.260908620" lon="1.833669390">
        <ele>934.06</ele>
        <time>2020-07-09T06:03:08Z</time>
      </trkpt>
      <trkpt lat="42.260948690" lon="1.833447780">
        <ele>933.58</ele>
        <time>2020-07-09T06:03:23Z</time>
      </trkpt>
      <trkpt lat="42.261034190" lon="1.833300510">
        <ele>933.58</ele>
        <time>2020-07-09T06:03:37Z</time>
      </trkpt>
      <trkpt lat="42.261157480" lon="1.833213500">
        <ele>933.10</ele>
        <time>2020-07-09T06:04:09Z</time>
      </trkpt>
      <trkpt lat="42.261328730" lon="1.833164130">
        <ele>932.62</ele>
        <time>2020-07-09T06:04:39Z</time>
      </trkpt>
      <trkpt lat="42.261521090" lon="1.833140830">
        <ele>932.14</ele>
        <time>2020-07-09T06:04:53Z</time>
      </trkpt>
      <trkpt lat="42.261685710" lon="1.833075620">
        <ele>931.65</ele>
        <time>2020-07-09T06:05:07Z</time>
      </trkpt>
      <trkpt lat="42.261806660" lon="1.832957100">
        <ele>930.21</ele>
        <time>2020-07-09T06:05:17Z</time>
      </trkpt>
      <trkpt lat="42.261888470" lon="1.832990290">
        <ele>930.69</ele>
        <time>2020-07-09T06:05:52Z</time>
      </trkpt>
      <trkpt lat="42.261912520" lon="1.833116690">
        <ele>929.25</ele>
        <time>2020-07-09T06:06:04Z</time>
      </trkpt>
      <trkpt lat="42.261893580" lon="1.833285920">
        <ele>925.89</ele>
        <time>2020-07-09T06:06:19Z</time>
      </trkpt>
      <trkpt lat="42.261922250" lon="1.833525140">
        <ele>923.00</ele>
        <time>2020-07-09T06:06:38Z</time>
      </trkpt>
      <trkpt lat="42.261878910" lon="1.833805010">
        <ele>918.68</ele>
        <time>2020-07-09T06:06:57Z</time>
      </trkpt>
      <trkpt lat="42.261859800" lon="1.833978940">
        <ele>916.75</ele>
        <time>2020-07-09T06:07:13Z</time>
      </trkpt>
      <trkpt lat="42.261751930" lon="1.834156380">
        <ele>912.91</ele>
        <time>2020-07-09T06:07:27Z</time>
      </trkpt>
      <trkpt lat="42.261663830" lon="1.834252860">
        <ele>911.47</ele>
        <time>2020-07-09T06:07:52Z</time>
      </trkpt>
      <trkpt lat="42.261645640" lon="1.834434490">
        <ele>910.99</ele>
        <time>2020-07-09T06:08:03Z</time>
      </trkpt>
      <trkpt lat="42.261681600" lon="1.834756860">
        <ele>910.51</ele>
        <time>2020-07-09T06:08:22Z</time>
      </trkpt>
      <trkpt lat="42.261734660" lon="1.834980740">
        <ele>909.06</ele>
        <time>2020-07-09T06:08:37Z</time>
      </trkpt>
      <trkpt lat="42.261734070" lon="1.835108230">
        <ele>908.58</ele>
        <time>2020-07-09T06:08:44Z</time>
      </trkpt>
      <trkpt lat="42.261704900" lon="1.835327330">
        <ele>908.58</ele>
        <time>2020-07-09T06:08:57Z</time>
      </trkpt>
      <trkpt lat="42.261667940" lon="1.835626150">
        <ele>907.62</ele>
        <time>2020-07-09T06:09:15Z</time>
      </trkpt>
      <trkpt lat="42.261551520" lon="1.835911470">
        <ele>906.18</ele>
        <time>2020-07-09T06:09:33Z</time>
      </trkpt>
      <trkpt lat="42.261424280" lon="1.836196790">
        <ele>904.74</ele>
        <time>2020-07-09T06:09:53Z</time>
      </trkpt>
      <trkpt lat="42.261343140" lon="1.836415560">
        <ele>904.26</ele>
        <time>2020-07-09T06:10:06Z</time>
      </trkpt>
      <trkpt lat="42.261323280" lon="1.836542040">
        <ele>903.78</ele>
        <time>2020-07-09T06:10:16Z</time>
      </trkpt>
      <trkpt lat="42.261134520" lon="1.836776310">
        <ele>902.33</ele>
        <time>2020-07-09T06:10:36Z</time>
      </trkpt>
      <trkpt lat="42.260925970" lon="1.837025090">
        <ele>901.37</ele>
        <time>2020-07-09T06:10:57Z</time>
      </trkpt>
      <trkpt lat="42.260846850" lon="1.837249470">
        <ele>901.37</ele>
        <time>2020-07-09T06:11:09Z</time>
      </trkpt>
      <trkpt lat="42.260699080" lon="1.837486180">
        <ele>899.93</ele>
        <time>2020-07-09T06:11:27Z</time>
      </trkpt>
      <trkpt lat="42.260633950" lon="1.837693460">
        <ele>899.45</ele>
        <time>2020-07-09T06:11:42Z</time>
      </trkpt>
      <trkpt lat="42.260566220" lon="1.838017090">
        <ele>898.01</ele>
        <time>2020-07-09T06:11:59Z</time>
      </trkpt>
      <trkpt lat="42.260500430" lon="1.838195290">
        <ele>897.53</ele>
        <time>2020-07-09T06:12:08Z</time>
      </trkpt>
      <trkpt lat="42.260378050" lon="1.838406930">
        <ele>897.05</ele>
        <time>2020-07-09T06:12:24Z</time>
      </trkpt>
      <trkpt lat="42.260182750" lon="1.838554370">
        <ele>896.09</ele>
        <time>2020-07-09T06:12:59Z</time>
      </trkpt>
      <trkpt lat="42.260072030" lon="1.838687640">
        <ele>895.61</ele>
        <time>2020-07-09T06:13:12Z</time>
      </trkpt>
      <trkpt lat="42.259889470" lon="1.838846390">
        <ele>894.16</ele>
        <time>2020-07-09T06:13:29Z</time>
      </trkpt>
      <trkpt lat="42.259759470" lon="1.838982350">
        <ele>893.20</ele>
        <time>2020-07-09T06:13:43Z</time>
      </trkpt>
      <trkpt lat="42.259682520" lon="1.839196170">
        <ele>891.76</ele>
        <time>2020-07-09T06:13:57Z</time>
      </trkpt>
      <trkpt lat="42.259697020" lon="1.839320310">
        <ele>891.76</ele>
        <time>2020-07-09T06:14:03Z</time>
      </trkpt>
      <trkpt lat="42.259691400" lon="1.839483840">
        <ele>891.28</ele>
        <time>2020-07-09T06:14:10Z</time>
      </trkpt>
      <trkpt lat="42.259673300" lon="1.839749040">
        <ele>892.72</ele>
        <time>2020-07-09T06:14:29Z</time>
      </trkpt>
      <trkpt lat="42.259630130" lon="1.839990360">
        <ele>892.24</ele>
        <time>2020-07-09T06:15:05Z</time>
      </trkpt>
      <trkpt lat="42.259717720" lon="1.840270140">
        <ele>890.32</ele>
        <time>2020-07-09T06:15:43Z</time>
      </trkpt>
      <trkpt lat="42.259769100" lon="1.840481370">
        <ele>888.40</ele>
        <time>2020-07-09T06:15:58Z</time>
      </trkpt>
      <trkpt lat="42.259858200" lon="1.840703740">
        <ele>886.95</ele>
        <time>2020-07-09T06:16:16Z</time>
      </trkpt>
      <trkpt lat="42.259997430" lon="1.841114450">
        <ele>885.51</ele>
        <time>2020-07-09T06:16:40Z</time>
      </trkpt>
      <trkpt lat="42.259984350" lon="1.841461460">
        <ele>885.51</ele>
        <time>2020-07-09T06:16:57Z</time>
      </trkpt>
      <trkpt lat="42.259917300" lon="1.841735130">
        <ele>883.59</ele>
        <time>2020-07-09T06:17:16Z</time>
      </trkpt>
      <trkpt lat="42.259875390" lon="1.841973350">
        <ele>883.11</ele>
        <time>2020-07-09T06:17:31Z</time>
      </trkpt>
      <trkpt lat="42.259816040" lon="1.842090190">
        <ele>882.63</ele>
        <time>2020-07-09T06:17:41Z</time>
      </trkpt>
      <trkpt lat="42.259609260" lon="1.842421860">
        <ele>880.71</ele>
        <time>2020-07-09T06:18:03Z</time>
      </trkpt>
      <trkpt lat="42.259447660" lon="1.842647080">
        <ele>879.74</ele>
        <time>2020-07-09T06:18:21Z</time>
      </trkpt>
      <trkpt lat="42.259364340" lon="1.842891750">
        <ele>879.26</ele>
        <time>2020-07-09T06:18:38Z</time>
      </trkpt>
      <trkpt lat="42.259310280" lon="1.843034750">
        <ele>877.82</ele>
        <time>2020-07-09T06:18:47Z</time>
      </trkpt>
      <trkpt lat="42.259211790" lon="1.843438420">
        <ele>877.82</ele>
        <time>2020-07-09T06:19:03Z</time>
      </trkpt>
      <trkpt lat="42.259203830" lon="1.843667330">
        <ele>876.86</ele>
        <time>2020-07-09T06:19:20Z</time>
      </trkpt>
      <trkpt lat="42.259138870" lon="1.843904620">
        <ele>875.90</ele>
        <time>2020-07-09T06:19:35Z</time>
      </trkpt>
      <trkpt lat="42.258965280" lon="1.844174850">
        <ele>875.90</ele>
        <time>2020-07-09T06:19:52Z</time>
      </trkpt>
      <trkpt lat="42.258827980" lon="1.844304600">
        <ele>874.94</ele>
        <time>2020-07-09T06:20:08Z</time>
      </trkpt>
      <trkpt lat="42.258644670" lon="1.844519350">
        <ele>873.50</ele>
        <time>2020-07-09T06:20:26Z</time>
      </trkpt>
      <trkpt lat="42.258551800" lon="1.844621440">
        <ele>873.50</ele>
        <time>2020-07-09T06:20:46Z</time>
      </trkpt>
      <trkpt lat="42.258066660" lon="1.844831320">
        <ele>873.98</ele>
        <time>2020-07-09T06:22:02Z</time>
      </trkpt>
      <trkpt lat="42.257942860" lon="1.844998370">
        <ele>871.57</ele>
        <time>2020-07-09T06:22:24Z</time>
      </trkpt>
      <trkpt lat="42.257740940" lon="1.845161400">
        <ele>868.69</ele>
        <time>2020-07-09T06:22:43Z</time>
      </trkpt>
      <trkpt lat="42.257624180" lon="1.845305400">
        <ele>868.21</ele>
        <time>2020-07-09T06:23:04Z</time>
      </trkpt>
      <trkpt lat="42.257409680" lon="1.845437250">
        <ele>867.25</ele>
        <time>2020-07-09T06:23:22Z</time>
      </trkpt>
      <trkpt lat="42.257195190" lon="1.845587370">
        <ele>866.77</ele>
        <time>2020-07-09T06:23:41Z</time>
      </trkpt>
      <trkpt lat="42.256994530" lon="1.845724670">
        <ele>864.84</ele>
        <time>2020-07-09T06:23:58Z</time>
      </trkpt>
      <trkpt lat="42.256841640" lon="1.845735900">
        <ele>864.36</ele>
        <time>2020-07-09T06:24:20Z</time>
      </trkpt>
      <trkpt lat="42.256739050" lon="1.845843690">
        <ele>864.36</ele>
        <time>2020-07-09T06:24:35Z</time>
      </trkpt>
      <trkpt lat="42.256555990" lon="1.845919630">
        <ele>864.36</ele>
        <time>2020-07-09T06:24:50Z</time>
      </trkpt>
      <trkpt lat="42.256464370" lon="1.845956090">
        <ele>863.40</ele>
        <time>2020-07-09T06:26:20Z</time>
      </trkpt>
      <trkpt lat="42.256384830" lon="1.845904790">
        <ele>863.40</ele>
        <time>2020-07-09T06:26:43Z</time>
      </trkpt>
      <trkpt lat="42.256178630" lon="1.845779570">
        <ele>862.44</ele>
        <time>2020-07-09T06:27:00Z</time>
      </trkpt>
      <trkpt lat="42.256003790" lon="1.845747880">
        <ele>861.96</ele>
        <time>2020-07-09T06:27:14Z</time>
      </trkpt>
      <trkpt lat="42.255777810" lon="1.845767000">
        <ele>860.52</ele>
        <time>2020-07-09T06:27:33Z</time>
      </trkpt>
      <trkpt lat="42.255666080" lon="1.845793230">
        <ele>859.08</ele>
        <time>2020-07-09T06:27:43Z</time>
      </trkpt>
      <trkpt lat="42.255413030" lon="1.845897000">
        <ele>858.11</ele>
        <time>2020-07-09T06:28:01Z</time>
      </trkpt>
      <trkpt lat="42.255225860" lon="1.845978890">
        <ele>857.63</ele>
        <time>2020-07-09T06:28:17Z</time>
      </trkpt>
      <trkpt lat="42.255040870" lon="1.846018700">
        <ele>857.15</ele>
        <time>2020-07-09T06:28:32Z</time>
      </trkpt>
      <trkpt lat="42.254733010" lon="1.846106970">
        <ele>857.15</ele>
        <time>2020-07-09T06:28:57Z</time>
      </trkpt>
      <trkpt lat="42.254660670" lon="1.846179550">
        <ele>857.63</ele>
        <time>2020-07-09T06:29:04Z</time>
      </trkpt>
      <trkpt lat="42.254574170" lon="1.846383820">
        <ele>855.71</ele>
        <time>2020-07-09T06:29:20Z</time>
      </trkpt>
      <trkpt lat="42.254449610" lon="1.846552630">
        <ele>855.71</ele>
        <time>2020-07-09T06:29:34Z</time>
      </trkpt>
      <trkpt lat="42.254339810" lon="1.846696300">
        <ele>853.79</ele>
        <time>2020-07-09T06:29:47Z</time>
      </trkpt>
      <trkpt lat="42.254048540" lon="1.846764190">
        <ele>853.31</ele>
        <time>2020-07-09T06:30:10Z</time>
      </trkpt>
      <trkpt lat="42.253923060" lon="1.846792020">
        <ele>852.35</ele>
        <time>2020-07-09T06:30:24Z</time>
      </trkpt>
      <trkpt lat="42.253462560" lon="1.847744620">
        <ele>849.46</ele>
        <time>2020-07-09T06:31:24Z</time>
      </trkpt>
      <trkpt lat="42.253485950" lon="1.847902120">
        <ele>848.02</ele>
        <time>2020-07-09T06:31:36Z</time>
      </trkpt>
      <trkpt lat="42.253545540" lon="1.848151060">
        <ele>848.50</ele>
        <time>2020-07-09T06:31:50Z</time>
      </trkpt>
      <trkpt lat="42.253621730" lon="1.848343170">
        <ele>850.90</ele>
        <time>2020-07-09T06:32:04Z</time>
      </trkpt>
      <trkpt lat="42.253629530" lon="1.848532600">
        <ele>849.94</ele>
        <time>2020-07-09T06:32:16Z</time>
      </trkpt>
      <trkpt lat="42.253631290" lon="1.848828990">
        <ele>847.06</ele>
        <time>2020-07-09T06:32:32Z</time>
      </trkpt>
      <trkpt lat="42.253712590" lon="1.849123530">
        <ele>846.10</ele>
        <time>2020-07-09T06:32:48Z</time>
      </trkpt>
      <trkpt lat="42.253777890" lon="1.849404570">
        <ele>844.66</ele>
        <time>2020-07-09T06:33:04Z</time>
      </trkpt>
      <trkpt lat="42.253970590" lon="1.849669860">
        <ele>841.77</ele>
        <time>2020-07-09T06:33:24Z</time>
      </trkpt>
      <trkpt lat="42.253954750" lon="1.849936910">
        <ele>840.81</ele>
        <time>2020-07-09T06:33:39Z</time>
      </trkpt>
      <trkpt lat="42.253840920" lon="1.850188280">
        <ele>839.85</ele>
        <time>2020-07-09T06:33:55Z</time>
      </trkpt>
      <trkpt lat="42.253714020" lon="1.850444770">
        <ele>839.37</ele>
        <time>2020-07-09T06:34:11Z</time>
      </trkpt>
      <trkpt lat="42.253593900" lon="1.850677950">
        <ele>838.41</ele>
        <time>2020-07-09T06:34:26Z</time>
      </trkpt>
      <trkpt lat="42.253470020" lon="1.850871320">
        <ele>837.93</ele>
        <time>2020-07-09T06:34:41Z</time>
      </trkpt>
      <trkpt lat="42.253301290" lon="1.851074420">
        <ele>836.96</ele>
        <time>2020-07-09T06:34:58Z</time>
      </trkpt>
      <trkpt lat="42.253165090" lon="1.851210450">
        <ele>836.48</ele>
        <time>2020-07-09T06:35:11Z</time>
      </trkpt>
      <trkpt lat="42.252965600" lon="1.851384210">
        <ele>834.56</ele>
        <time>2020-07-09T06:35:27Z</time>
      </trkpt>
      <trkpt lat="42.252866440" lon="1.851501140">
        <ele>834.08</ele>
        <time>2020-07-09T06:35:37Z</time>
      </trkpt>
      <trkpt lat="42.252827800" lon="1.851631730">
        <ele>834.08</ele>
        <time>2020-07-09T06:36:17Z</time>
      </trkpt>
      <trkpt lat="42.252825370" lon="1.851858880">
        <ele>833.12</ele>
        <time>2020-07-09T06:36:31Z</time>
      </trkpt>
      <trkpt lat="42.252820510" lon="1.852097180">
        <ele>832.64</ele>
        <time>2020-07-09T06:36:46Z</time>
      </trkpt>
      <trkpt lat="42.252852940" lon="1.852397250">
        <ele>832.64</ele>
        <time>2020-07-09T06:37:03Z</time>
      </trkpt>
      <trkpt lat="42.252875990" lon="1.852661110">
        <ele>832.16</ele>
        <time>2020-07-09T06:37:16Z</time>
      </trkpt>
      <trkpt lat="42.252807680" lon="1.852952300">
        <ele>830.72</ele>
        <time>2020-07-09T06:37:31Z</time>
      </trkpt>
      <trkpt lat="42.252676760" lon="1.853150110">
        <ele>829.27</ele>
        <time>2020-07-09T06:37:46Z</time>
      </trkpt>
      <trkpt lat="42.252583720" lon="1.853404590">
        <ele>828.31</ele>
        <time>2020-07-09T06:38:03Z</time>
      </trkpt>
      <trkpt lat="42.252419850" lon="1.853703990">
        <ele>827.83</ele>
        <time>2020-07-09T06:38:23Z</time>
      </trkpt>
      <trkpt lat="42.252310300" lon="1.853919570">
        <ele>826.87</ele>
        <time>2020-07-09T06:38:37Z</time>
      </trkpt>
      <trkpt lat="42.252175440" lon="1.854135490">
        <ele>825.43</ele>
        <time>2020-07-09T06:38:53Z</time>
      </trkpt>
      <trkpt lat="42.252073850" lon="1.854378560">
        <ele>824.47</ele>
        <time>2020-07-09T06:39:07Z</time>
      </trkpt>
      <trkpt lat="42.251986340" lon="1.854572600">
        <ele>823.99</ele>
        <time>2020-07-09T06:39:20Z</time>
      </trkpt>
      <trkpt lat="42.251850890" lon="1.854681150">
        <ele>823.99</ele>
        <time>2020-07-09T06:39:34Z</time>
      </trkpt>
      <trkpt lat="42.251605800" lon="1.854703700">
        <ele>822.55</ele>
        <time>2020-07-09T06:40:00Z</time>
      </trkpt>
      <trkpt lat="42.251408990" lon="1.854656170">
        <ele>821.58</ele>
        <time>2020-07-09T06:40:16Z</time>
      </trkpt>
      <trkpt lat="42.251183860" lon="1.854671760">
        <ele>820.62</ele>
        <time>2020-07-09T06:40:33Z</time>
      </trkpt>
      <trkpt lat="42.251036670" lon="1.854785420">
        <ele>820.62</ele>
        <time>2020-07-09T06:40:45Z</time>
      </trkpt>
      <trkpt lat="42.250974140" lon="1.855015340">
        <ele>818.70</ele>
        <time>2020-07-09T06:40:59Z</time>
      </trkpt>
      <trkpt lat="42.250967850" lon="1.855232680">
        <ele>817.26</ele>
        <time>2020-07-09T06:41:12Z</time>
      </trkpt>
      <trkpt lat="42.251031890" lon="1.855380790">
        <ele>816.78</ele>
        <time>2020-07-09T06:41:33Z</time>
      </trkpt>
      <trkpt lat="42.251193080" lon="1.856223170">
        <ele>815.82</ele>
        <time>2020-07-09T06:42:06Z</time>
      </trkpt>
      <trkpt lat="42.251241860" lon="1.856493070">
        <ele>815.34</ele>
        <time>2020-07-09T06:42:22Z</time>
      </trkpt>
      <trkpt lat="42.251199450" lon="1.856760700">
        <ele>814.37</ele>
        <time>2020-07-09T06:42:36Z</time>
      </trkpt>
      <trkpt lat="42.251174720" lon="1.857034870">
        <ele>814.37</ele>
        <time>2020-07-09T06:42:52Z</time>
      </trkpt>
      <trkpt lat="42.251202380" lon="1.857296050">
        <ele>813.41</ele>
        <time>2020-07-09T06:43:07Z</time>
      </trkpt>
      <trkpt lat="42.251215540" lon="1.857645410">
        <ele>812.45</ele>
        <time>2020-07-09T06:43:25Z</time>
      </trkpt>
      <trkpt lat="42.251266920" lon="1.857938020">
        <ele>812.45</ele>
        <time>2020-07-09T06:43:39Z</time>
      </trkpt>
      <trkpt lat="42.251301960" lon="1.858203900">
        <ele>811.01</ele>
        <time>2020-07-09T06:43:55Z</time>
      </trkpt>
      <trkpt lat="42.251260970" lon="1.858424670">
        <ele>810.05</ele>
        <time>2020-07-09T06:44:06Z</time>
      </trkpt>
      <trkpt lat="42.251183350" lon="1.858760710">
        <ele>809.09</ele>
        <time>2020-07-09T06:44:24Z</time>
      </trkpt>
      <trkpt lat="42.251116050" lon="1.859121880">
        <ele>807.64</ele>
        <time>2020-07-09T06:44:43Z</time>
      </trkpt>
      <trkpt lat="42.251042370" lon="1.859413150">
        <ele>807.16</ele>
        <time>2020-07-09T06:44:59Z</time>
      </trkpt>
      <trkpt lat="42.250939690" lon="1.859703420">
        <ele>807.16</ele>
        <time>2020-07-09T06:45:15Z</time>
      </trkpt>
      <trkpt lat="42.250857880" lon="1.860003410">
        <ele>805.24</ele>
        <time>2020-07-09T06:45:32Z</time>
      </trkpt>
      <trkpt lat="42.250809520" lon="1.860144390">
        <ele>804.76</ele>
        <time>2020-07-09T06:46:08Z</time>
      </trkpt>
      <trkpt lat="42.250826700" lon="1.860482850">
        <ele>801.88</ele>
        <time>2020-07-09T06:46:30Z</time>
      </trkpt>
      <trkpt lat="42.250811530" lon="1.860741770">
        <ele>799.47</ele>
        <time>2020-07-09T06:46:45Z</time>
      </trkpt>
      <trkpt lat="42.250812120" lon="1.860881580">
        <ele>798.51</ele>
        <time>2020-07-09T06:47:53Z</time>
      </trkpt>
      <trkpt lat="42.250697540" lon="1.861181650">
        <ele>798.99</ele>
        <time>2020-07-09T06:48:42Z</time>
      </trkpt>
      <trkpt lat="42.250623530" lon="1.861275780">
        <ele>798.99</ele>
        <time>2020-07-09T06:48:50Z</time>
      </trkpt>
      <trkpt lat="42.250418920" lon="1.861420530">
        <ele>798.51</ele>
        <time>2020-07-09T06:49:21Z</time>
      </trkpt>
      <trkpt lat="42.250283220" lon="1.861457670">
        <ele>798.99</ele>
        <time>2020-07-09T06:49:34Z</time>
      </trkpt>
      <trkpt lat="42.250112400" lon="1.861459590">
        <ele>799.47</ele>
        <time>2020-07-09T06:49:47Z</time>
      </trkpt>
      <trkpt lat="42.250017850" lon="1.861433020">
        <ele>799.47</ele>
        <time>2020-07-09T06:49:56Z</time>
      </trkpt>
      <trkpt lat="42.249887430" lon="1.861307800">
        <ele>799.47</ele>
        <time>2020-07-09T06:50:06Z</time>
      </trkpt>
      <trkpt lat="42.249748790" lon="1.861178550">
        <ele>799.47</ele>
        <time>2020-07-09T06:50:19Z</time>
      </trkpt>
      <trkpt lat="42.249597080" lon="1.861062880">
        <ele>799.95</ele>
        <time>2020-07-09T06:50:32Z</time>
      </trkpt>
      <trkpt lat="42.249389540" lon="1.861047460">
        <ele>800.44</ele>
        <time>2020-07-09T06:50:50Z</time>
      </trkpt>
      <trkpt lat="42.249277980" lon="1.861210820">
        <ele>799.47</ele>
        <time>2020-07-09T06:51:12Z</time>
      </trkpt>
      <trkpt lat="42.249111510" lon="1.862060070">
        <ele>798.99</ele>
        <time>2020-07-09T06:51:41Z</time>
      </trkpt>
      <trkpt lat="42.249032810" lon="1.862290740">
        <ele>798.51</ele>
        <time>2020-07-09T06:51:56Z</time>
      </trkpt>
      <trkpt lat="42.248961730" lon="1.862601460">
        <ele>798.03</ele>
        <time>2020-07-09T06:52:12Z</time>
      </trkpt>
      <trkpt lat="42.248909260" lon="1.862904220">
        <ele>797.55</ele>
        <time>2020-07-09T06:52:28Z</time>
      </trkpt>
      <trkpt lat="42.248927780" lon="1.863078640">
        <ele>797.55</ele>
        <time>2020-07-09T06:52:36Z</time>
      </trkpt>
      <trkpt lat="42.248944210" lon="1.863209230">
        <ele>797.55</ele>
        <time>2020-07-09T06:52:44Z</time>
      </trkpt>
      <trkpt lat="42.249003140" lon="1.863547270">
        <ele>797.07</ele>
        <time>2020-07-09T06:53:00Z</time>
      </trkpt>
      <trkpt lat="42.249036920" lon="1.863858160">
        <ele>796.59</ele>
        <time>2020-07-09T06:53:14Z</time>
      </trkpt>
      <trkpt lat="42.248936250" lon="1.864002500">
        <ele>796.11</ele>
        <time>2020-07-09T06:53:26Z</time>
      </trkpt>
      <trkpt lat="42.248699460" lon="1.864154540">
        <ele>795.63</ele>
        <time>2020-07-09T06:53:39Z</time>
      </trkpt>
      <trkpt lat="42.248617230" lon="1.864276580">
        <ele>794.67</ele>
        <time>2020-07-09T06:53:53Z</time>
      </trkpt>
      <trkpt lat="42.248455550" lon="1.864395190">
        <ele>793.71</ele>
        <time>2020-07-09T06:54:08Z</time>
      </trkpt>
      <trkpt lat="42.248363600" lon="1.864444810">
        <ele>793.71</ele>
        <time>2020-07-09T06:54:17Z</time>
      </trkpt>
      <trkpt lat="42.248173500" lon="1.864509680">
        <ele>793.22</ele>
        <time>2020-07-09T06:54:30Z</time>
      </trkpt>
      <trkpt lat="42.248110880" lon="1.864609260">
        <ele>792.74</ele>
        <time>2020-07-09T06:54:35Z</time>
      </trkpt>
      <trkpt lat="42.247879540" lon="1.864717140">
        <ele>792.74</ele>
        <time>2020-07-09T06:54:54Z</time>
      </trkpt>
      <trkpt lat="42.247684160" lon="1.864817970">
        <ele>792.74</ele>
        <time>2020-07-09T06:55:08Z</time>
      </trkpt>
      <trkpt lat="42.247572680" lon="1.864917130">
        <ele>792.26</ele>
        <time>2020-07-09T06:55:20Z</time>
      </trkpt>
      <trkpt lat="42.247496660" lon="1.864983090">
        <ele>795.63</ele>
        <time>2020-07-09T06:55:31Z</time>
      </trkpt>
      <trkpt lat="42.247360280" lon="1.865055180">
        <ele>792.26</ele>
        <time>2020-07-09T06:55:42Z</time>
      </trkpt>
      <trkpt lat="42.247263220" lon="1.865135900">
        <ele>792.74</ele>
        <time>2020-07-09T06:55:52Z</time>
      </trkpt>
      <trkpt lat="42.247163730" lon="1.865210330">
        <ele>793.22</ele>
        <time>2020-07-09T06:55:59Z</time>
      </trkpt>
      <trkpt lat="42.246959130" lon="1.865416270">
        <ele>793.22</ele>
        <time>2020-07-09T06:56:20Z</time>
      </trkpt>
      <trkpt lat="42.246799370" lon="1.865582740">
        <ele>793.22</ele>
        <time>2020-07-09T06:56:35Z</time>
      </trkpt>
      <trkpt lat="42.246584120" lon="1.865745430">
        <ele>794.19</ele>
        <time>2020-07-09T06:56:54Z</time>
      </trkpt>
      <trkpt lat="42.246216320" lon="1.865886240">
        <ele>795.15</ele>
        <time>2020-07-09T06:57:20Z</time>
      </trkpt>
      <trkpt lat="42.246122860" lon="1.865906700">
        <ele>792.74</ele>
        <time>2020-07-09T06:57:58Z</time>
      </trkpt>
      <trkpt lat="42.246027560" lon="1.865991270">
        <ele>791.78</ele>
        <time>2020-07-09T06:58:07Z</time>
      </trkpt>
      <trkpt lat="42.245847430" lon="1.866140550">
        <ele>790.82</ele>
        <time>2020-07-09T06:58:29Z</time>
      </trkpt>
      <trkpt lat="42.245674260" lon="1.866318580">
        <ele>789.38</ele>
        <time>2020-07-09T06:58:44Z</time>
      </trkpt>
      <trkpt lat="42.245524980" lon="1.866506920">
        <ele>788.42</ele>
        <time>2020-07-09T06:59:00Z</time>
      </trkpt>
      <trkpt lat="42.245440070" lon="1.866656540">
        <ele>788.42</ele>
        <time>2020-07-09T06:59:12Z</time>
      </trkpt>
      <trkpt lat="42.245339740" lon="1.866879170">
        <ele>787.46</ele>
        <time>2020-07-09T06:59:28Z</time>
      </trkpt>
      <trkpt lat="42.245220300" lon="1.867021150">
        <ele>787.46</ele>
        <time>2020-07-09T06:59:38Z</time>
      </trkpt>
      <trkpt lat="42.245020220" lon="1.867228270">
        <ele>787.94</ele>
        <time>2020-07-09T06:59:56Z</time>
      </trkpt>
      <trkpt lat="42.244772710" lon="1.867238080">
        <ele>786.50</ele>
        <time>2020-07-09T07:00:15Z</time>
      </trkpt>
      <trkpt lat="42.244666340" lon="1.867286780">
        <ele>787.46</ele>
        <time>2020-07-09T07:00:29Z</time>
      </trkpt>
      <trkpt lat="42.244413630" lon="1.867459440">
        <ele>786.50</ele>
        <time>2020-07-09T07:00:47Z</time>
      </trkpt>
      <trkpt lat="42.244340370" lon="1.867725990">
        <ele>785.53</ele>
        <time>2020-07-09T07:01:07Z</time>
      </trkpt>
      <trkpt lat="42.244187570" lon="1.868052380">
        <ele>784.09</ele>
        <time>2020-07-09T07:01:35Z</time>
      </trkpt>
      <trkpt lat="42.244037530" lon="1.868281630">
        <ele>783.13</ele>
        <time>2020-07-09T07:01:52Z</time>
      </trkpt>
      <trkpt lat="42.243867630" lon="1.868509280">
        <ele>782.65</ele>
        <time>2020-07-09T07:02:09Z</time>
      </trkpt>
      <trkpt lat="42.243785320" lon="1.868700640">
        <ele>782.65</ele>
        <time>2020-07-09T07:02:24Z</time>
      </trkpt>
      <trkpt lat="42.243648860" lon="1.868888480">
        <ele>782.65</ele>
        <time>2020-07-09T07:02:42Z</time>
      </trkpt>
      <trkpt lat="42.243506450" lon="1.869021750">
        <ele>781.69</ele>
        <time>2020-07-09T07:02:57Z</time>
      </trkpt>
      <trkpt lat="42.243311070" lon="1.869160800">
        <ele>782.17</ele>
        <time>2020-07-09T07:03:14Z</time>
      </trkpt>
      <trkpt lat="42.243062460" lon="1.869298690">
        <ele>780.73</ele>
        <time>2020-07-09T07:03:30Z</time>
      </trkpt>
      <trkpt lat="42.242911000" lon="1.869397510">
        <ele>780.73</ele>
        <time>2020-07-09T07:03:45Z</time>
      </trkpt>
      <trkpt lat="42.242681250" lon="1.869499770">
        <ele>779.77</ele>
        <time>2020-07-09T07:04:03Z</time>
      </trkpt>
      <trkpt lat="42.242460640" lon="1.869567490">
        <ele>780.25</ele>
        <time>2020-07-09T07:04:20Z</time>
      </trkpt>
      <trkpt lat="42.242232820" lon="1.869743930">
        <ele>778.81</ele>
        <time>2020-07-09T07:04:40Z</time>
      </trkpt>
      <trkpt lat="42.242059990" lon="1.869856420">
        <ele>778.81</ele>
        <time>2020-07-09T07:04:56Z</time>
      </trkpt>
      <trkpt lat="42.241840720" lon="1.870010640">
        <ele>778.32</ele>
        <time>2020-07-09T07:05:12Z</time>
      </trkpt>
      <trkpt lat="42.241682380" lon="1.870143250">
        <ele>776.88</ele>
        <time>2020-07-09T07:05:28Z</time>
      </trkpt>
      <trkpt lat="42.241579700" lon="1.870209550">
        <ele>775.92</ele>
        <time>2020-07-09T07:05:37Z</time>
      </trkpt>
      <trkpt lat="42.241374180" lon="1.870273000">
        <ele>776.88</ele>
        <time>2020-07-09T07:05:53Z</time>
      </trkpt>
      <trkpt lat="42.241223470" lon="1.870495870">
        <ele>775.44</ele>
        <time>2020-07-09T07:06:08Z</time>
      </trkpt>
      <trkpt lat="42.241097910" lon="1.870644480">
        <ele>774.96</ele>
        <time>2020-07-09T07:06:23Z</time>
      </trkpt>
      <trkpt lat="42.240932700" lon="1.870771050">
        <ele>774.48</ele>
        <time>2020-07-09T07:06:38Z</time>
      </trkpt>
      <trkpt lat="42.240761210" lon="1.870923600">
        <ele>775.44</ele>
        <time>2020-07-09T07:06:53Z</time>
      </trkpt>
      <trkpt lat="42.240677640" lon="1.870834670">
        <ele>775.92</ele>
        <time>2020-07-09T07:20:41Z</time>
      </trkpt>
      <trkpt lat="42.240499360" lon="1.870851600">
        <ele>774.48</ele>
        <time>2020-07-09T07:20:59Z</time>
      </trkpt>
      <trkpt lat="42.240356620" lon="1.870835510">
        <ele>774.00</ele>
        <time>2020-07-09T07:21:14Z</time>
      </trkpt>
      <trkpt lat="42.240185540" lon="1.870802230">
        <ele>772.56</ele>
        <time>2020-07-09T07:21:30Z</time>
      </trkpt>
      <trkpt lat="42.240019660" lon="1.870891160">
        <ele>773.04</ele>
        <time>2020-07-09T07:21:50Z</time>
      </trkpt>
      <trkpt lat="42.239888150" lon="1.871058890">
        <ele>772.56</ele>
        <time>2020-07-09T07:22:08Z</time>
      </trkpt>
      <trkpt lat="42.239777260" lon="1.871280840">
        <ele>771.60</ele>
        <time>2020-07-09T07:22:21Z</time>
      </trkpt>
      <trkpt lat="42.239702910" lon="1.871451070">
        <ele>771.11</ele>
        <time>2020-07-09T07:22:34Z</time>
      </trkpt>
      <trkpt lat="42.239682120" lon="1.871593820">
        <ele>771.11</ele>
        <time>2020-07-09T07:22:45Z</time>
      </trkpt>
      <trkpt lat="42.239558580" lon="1.871799930">
        <ele>771.11</ele>
        <time>2020-07-09T07:22:59Z</time>
      </trkpt>
      <trkpt lat="42.239472410" lon="1.871945270">
        <ele>769.19</ele>
        <time>2020-07-09T07:23:09Z</time>
      </trkpt>
      <trkpt lat="42.239335530" lon="1.872160940">
        <ele>768.23</ele>
        <time>2020-07-09T07:23:23Z</time>
      </trkpt>
      <trkpt lat="42.239162200" lon="1.872322040">
        <ele>767.75</ele>
        <time>2020-07-09T07:23:36Z</time>
      </trkpt>
      <trkpt lat="42.239024310" lon="1.872566710">
        <ele>767.75</ele>
        <time>2020-07-09T07:23:52Z</time>
      </trkpt>
      <trkpt lat="42.238898750" lon="1.872751780">
        <ele>765.35</ele>
        <time>2020-07-09T07:24:12Z</time>
      </trkpt>
      <trkpt lat="42.238767160" lon="1.872847330">
        <ele>765.35</ele>
        <time>2020-07-09T07:24:30Z</time>
      </trkpt>
      <trkpt lat="42.238535980" lon="1.872867780">
        <ele>765.35</ele>
        <time>2020-07-09T07:24:49Z</time>
      </trkpt>
      <trkpt lat="42.238458870" lon="1.873087050">
        <ele>765.35</ele>
        <time>2020-07-09T07:25:03Z</time>
      </trkpt>
      <trkpt lat="42.238440850" lon="1.873316470">
        <ele>764.87</ele>
        <time>2020-07-09T07:25:18Z</time>
      </trkpt>
      <trkpt lat="42.238299450" lon="1.873478070">
        <ele>763.90</ele>
        <time>2020-07-09T07:25:28Z</time>
      </trkpt>
      <trkpt lat="42.238187800" lon="1.873571440">
        <ele>762.94</ele>
        <time>2020-07-09T07:25:41Z</time>
      </trkpt>
      <trkpt lat="42.237980260" lon="1.873818960">
        <ele>761.50</ele>
        <time>2020-07-09T07:26:04Z</time>
      </trkpt>
      <trkpt lat="42.237803150" lon="1.874002270">
        <ele>761.02</ele>
        <time>2020-07-09T07:26:19Z</time>
      </trkpt>
      <trkpt lat="42.237516160" lon="1.874133950">
        <ele>761.02</ele>
        <time>2020-07-09T07:26:40Z</time>
      </trkpt>
      <trkpt lat="42.237194040" lon="1.874207460">
        <ele>759.58</ele>
        <time>2020-07-09T07:27:12Z</time>
      </trkpt>
      <trkpt lat="42.236998660" lon="1.874281310">
        <ele>759.10</ele>
        <time>2020-07-09T07:27:29Z</time>
      </trkpt>
      <trkpt lat="42.236779970" lon="1.874395300">
        <ele>757.66</ele>
        <time>2020-07-09T07:27:46Z</time>
      </trkpt>
      <trkpt lat="42.236587440" lon="1.874594040">
        <ele>757.18</ele>
        <time>2020-07-09T07:28:04Z</time>
      </trkpt>
      <trkpt lat="42.236451240" lon="1.874857650">
        <ele>756.21</ele>
        <time>2020-07-09T07:28:22Z</time>
      </trkpt>
      <trkpt lat="42.236289050" lon="1.875001730">
        <ele>758.62</ele>
        <time>2020-07-09T07:28:59Z</time>
      </trkpt>
      <trkpt lat="42.236167430" lon="1.875127540">
        <ele>761.98</ele>
        <time>2020-07-09T07:29:18Z</time>
      </trkpt>
      <trkpt lat="42.235956620" lon="1.875328880">
        <ele>765.83</ele>
        <time>2020-07-09T07:30:12Z</time>
      </trkpt>
      <trkpt lat="42.235820750" lon="1.875202060">
        <ele>770.15</ele>
        <time>2020-07-09T07:30:42Z</time>
      </trkpt>
      <trkpt lat="42.235726450" lon="1.875109610">
        <ele>775.92</ele>
        <time>2020-07-09T07:31:12Z</time>
      </trkpt>
      <trkpt lat="42.235647580" lon="1.875190580">
        <ele>779.29</ele>
        <time>2020-07-09T07:31:33Z</time>
      </trkpt>
      <trkpt lat="42.235541550" lon="1.875273810">
        <ele>782.17</ele>
        <time>2020-07-09T07:31:48Z</time>
      </trkpt>
      <trkpt lat="42.235434510" lon="1.875308680">
        <ele>785.53</ele>
        <time>2020-07-09T07:32:04Z</time>
      </trkpt>
      <trkpt lat="42.235405850" lon="1.875224100">
        <ele>786.50</ele>
        <time>2020-07-09T07:32:18Z</time>
      </trkpt>
      <trkpt lat="42.235486400" lon="1.875099970">
        <ele>786.98</ele>
        <time>2020-07-09T07:32:36Z</time>
      </trkpt>
      <trkpt lat="42.235578430" lon="1.874910450">
        <ele>786.98</ele>
        <time>2020-07-09T07:33:10Z</time>
      </trkpt>
      <trkpt lat="42.235483290" lon="1.874818250">
        <ele>787.94</ele>
        <time>2020-07-09T07:33:25Z</time>
      </trkpt>
      <trkpt lat="42.235361510" lon="1.874802750">
        <ele>787.46</ele>
        <time>2020-07-09T07:33:37Z</time>
      </trkpt>
      <trkpt lat="42.235244580" lon="1.874774250">
        <ele>788.90</ele>
        <time>2020-07-09T07:33:49Z</time>
      </trkpt>
      <trkpt lat="42.235142400" lon="1.874754380">
        <ele>789.86</ele>
        <time>2020-07-09T07:33:59Z</time>
      </trkpt>
      <trkpt lat="42.234998320" lon="1.874765190">
        <ele>790.34</ele>
        <time>2020-07-09T07:34:12Z</time>
      </trkpt>
      <trkpt lat="42.234855740" lon="1.874843730">
        <ele>789.86</ele>
        <time>2020-07-09T07:34:25Z</time>
      </trkpt>
      <trkpt lat="42.234768820" lon="1.874888910">
        <ele>789.86</ele>
        <time>2020-07-09T07:34:33Z</time>
      </trkpt>
      <trkpt lat="42.234690950" lon="1.874882290">
        <ele>789.38</ele>
        <time>2020-07-09T07:34:48Z</time>
      </trkpt>
    </trkseg>
  </trk>
</gpx>
